<?xml version="1.0" encoding="UTF-8" standalone="no" ?>
<gpx xmlns="http://www.topografix.com/GPX/1/1" xmlns:xsi="http://www.w3.org/2001/XMLSchema-instance" xsi:schemaLocation="http://www.topografix.com/GPX/1/1 http://www.topografix.com/GPX/1/1/gpx.xsd" version="1.1" creator="VisuGPX - https://www.visugpx.com">
  <metadata>
    <name>64 - VTT - Randonnée du petit manseng - Monein</name>
    <desc><![CDATA[Belle journée, beaucoup de participants]]></desc>
  </metadata>
  <trk>
    <name><![CDATA[ACTIVE LOG]]></name>
    <trkseg>
      <trkpt lat="43.32226" lon="-0.56888">
        <ele>136.644653</ele>
        <time>2014-09-07T06:36:06Z</time>
      </trkpt>
      <trkpt lat="43.32226" lon="-0.56888">
        <ele>136.644653</ele>
        <time>2014-09-07T06:36:08Z</time>
      </trkpt>
      <trkpt lat="43.32226" lon="-0.56888">
        <ele>137.125244</ele>
        <time>2014-09-07T06:36:09Z</time>
      </trkpt>
      <trkpt lat="43.32224" lon="-0.56884">
        <ele>138.086548</ele>
        <time>2014-09-07T06:36:32Z</time>
      </trkpt>
      <trkpt lat="43.32223" lon="-0.56878">
        <ele>138.086548</ele>
        <time>2014-09-07T06:36:45Z</time>
      </trkpt>
      <trkpt lat="43.32226" lon="-0.56875">
        <ele>138.086548</ele>
        <time>2014-09-07T06:37:17Z</time>
      </trkpt>
      <trkpt lat="43.32227" lon="-0.56875">
        <ele>138.086548</ele>
        <time>2014-09-07T06:37:31Z</time>
      </trkpt>
      <trkpt lat="43.32225" lon="-0.56874">
        <ele>137.605835</ele>
        <time>2014-09-07T06:38:16Z</time>
      </trkpt>
      <trkpt lat="43.32224" lon="-0.56875">
        <ele>137.605835</ele>
        <time>2014-09-07T06:39:12Z</time>
      </trkpt>
      <trkpt lat="43.32224" lon="-0.56875">
        <ele>137.605835</ele>
        <time>2014-09-07T06:39:41Z</time>
      </trkpt>
      <trkpt lat="43.32224" lon="-0.56875">
        <ele>137.605835</ele>
        <time>2014-09-07T06:40:02Z</time>
      </trkpt>
      <trkpt lat="43.32217" lon="-0.56873">
        <ele>137.605835</ele>
        <time>2014-09-07T06:40:17Z</time>
      </trkpt>
      <trkpt lat="43.32216" lon="-0.56875">
        <ele>137.605835</ele>
        <time>2014-09-07T06:40:19Z</time>
      </trkpt>
      <trkpt lat="43.32188" lon="-0.5688">
        <ele>137.605835</ele>
        <time>2014-09-07T06:40:32Z</time>
      </trkpt>
      <trkpt lat="43.32171" lon="-0.56871">
        <ele>138.567261</ele>
        <time>2014-09-07T06:40:38Z</time>
      </trkpt>
      <trkpt lat="43.32114" lon="-0.5683">
        <ele>138.086548</ele>
        <time>2014-09-07T06:40:58Z</time>
      </trkpt>
      <trkpt lat="43.32083" lon="-0.56812">
        <ele>138.086548</ele>
        <time>2014-09-07T06:41:09Z</time>
      </trkpt>
      <trkpt lat="43.32078" lon="-0.56799">
        <ele>138.086548</ele>
        <time>2014-09-07T06:41:13Z</time>
      </trkpt>
      <trkpt lat="43.32095" lon="-0.56753">
        <ele>137.125244</ele>
        <time>2014-09-07T06:41:26Z</time>
      </trkpt>
      <trkpt lat="43.32117" lon="-0.56716">
        <ele>137.605835</ele>
        <time>2014-09-07T06:41:36Z</time>
      </trkpt>
      <trkpt lat="43.32136" lon="-0.56666">
        <ele>137.605835</ele>
        <time>2014-09-07T06:41:47Z</time>
      </trkpt>
      <trkpt lat="43.32129" lon="-0.56652">
        <ele>138.567261</ele>
        <time>2014-09-07T06:41:51Z</time>
      </trkpt>
      <trkpt lat="43.32045" lon="-0.56609">
        <ele>138.567261</ele>
        <time>2014-09-07T06:42:12Z</time>
      </trkpt>
      <trkpt lat="43.31961" lon="-0.56589">
        <ele>140.489868</ele>
        <time>2014-09-07T06:42:31Z</time>
      </trkpt>
      <trkpt lat="43.31919" lon="-0.56552">
        <ele>140.970459</ele>
        <time>2014-09-07T06:42:42Z</time>
      </trkpt>
      <trkpt lat="43.31903" lon="-0.56543">
        <ele>141.931763</ele>
        <time>2014-09-07T06:42:46Z</time>
      </trkpt>
      <trkpt lat="43.31891" lon="-0.56539">
        <ele>141.45105</ele>
        <time>2014-09-07T06:42:49Z</time>
      </trkpt>
      <trkpt lat="43.31832" lon="-0.56529">
        <ele>143.373657</ele>
        <time>2014-09-07T06:43:05Z</time>
      </trkpt>
      <trkpt lat="43.31825" lon="-0.5653">
        <ele>142.412476</ele>
        <time>2014-09-07T06:43:07Z</time>
      </trkpt>
      <trkpt lat="43.31812" lon="-0.56564">
        <ele>140.970459</ele>
        <time>2014-09-07T06:43:14Z</time>
      </trkpt>
      <trkpt lat="43.31809" lon="-0.56589">
        <ele>140.970459</ele>
        <time>2014-09-07T06:43:18Z</time>
      </trkpt>
      <trkpt lat="43.31795" lon="-0.56646">
        <ele>140.489868</ele>
        <time>2014-09-07T06:43:28Z</time>
      </trkpt>
      <trkpt lat="43.31786" lon="-0.56668">
        <ele>140.009155</ele>
        <time>2014-09-07T06:43:32Z</time>
      </trkpt>
      <trkpt lat="43.31718" lon="-0.56737">
        <ele>139.528442</ele>
        <time>2014-09-07T06:43:49Z</time>
      </trkpt>
      <trkpt lat="43.31669" lon="-0.56754">
        <ele>140.009155</ele>
        <time>2014-09-07T06:44:02Z</time>
      </trkpt>
      <trkpt lat="43.31656" lon="-0.56758">
        <ele>139.528442</ele>
        <time>2014-09-07T06:44:05Z</time>
      </trkpt>
      <trkpt lat="43.31599" lon="-0.56756">
        <ele>140.009155</ele>
        <time>2014-09-07T06:44:20Z</time>
      </trkpt>
      <trkpt lat="43.31575" lon="-0.56774">
        <ele>137.605835</ele>
        <time>2014-09-07T06:44:33Z</time>
      </trkpt>
      <trkpt lat="43.31542" lon="-0.56759">
        <ele>139.528442</ele>
        <time>2014-09-07T06:44:45Z</time>
      </trkpt>
      <trkpt lat="43.31531" lon="-0.56774">
        <ele>139.528442</ele>
        <time>2014-09-07T06:44:50Z</time>
      </trkpt>
      <trkpt lat="43.31522" lon="-0.56831">
        <ele>140.009155</ele>
        <time>2014-09-07T06:45:01Z</time>
      </trkpt>
      <trkpt lat="43.31557" lon="-0.5688">
        <ele>139.528442</ele>
        <time>2014-09-07T06:45:13Z</time>
      </trkpt>
      <trkpt lat="43.3156" lon="-0.56898">
        <ele>139.528442</ele>
        <time>2014-09-07T06:45:17Z</time>
      </trkpt>
      <trkpt lat="43.31541" lon="-0.5698">
        <ele>140.489868</ele>
        <time>2014-09-07T06:45:33Z</time>
      </trkpt>
      <trkpt lat="43.31509" lon="-0.57064">
        <ele>142.893066</ele>
        <time>2014-09-07T06:45:51Z</time>
      </trkpt>
      <trkpt lat="43.31462" lon="-0.57094">
        <ele>143.373657</ele>
        <time>2014-09-07T06:46:05Z</time>
      </trkpt>
      <trkpt lat="43.31449" lon="-0.57115">
        <ele>146.257813</ele>
        <time>2014-09-07T06:46:11Z</time>
      </trkpt>
      <trkpt lat="43.31427" lon="-0.57151">
        <ele>149.622314</ele>
        <time>2014-09-07T06:46:24Z</time>
      </trkpt>
      <trkpt lat="43.31423" lon="-0.57159">
        <ele>150.583618</ele>
        <time>2014-09-07T06:46:27Z</time>
      </trkpt>
      <trkpt lat="43.31409" lon="-0.57147">
        <ele>147.218994</ele>
        <time>2014-09-07T06:46:32Z</time>
      </trkpt>
      <trkpt lat="43.31396" lon="-0.57126">
        <ele>146.738403</ele>
        <time>2014-09-07T06:46:35Z</time>
      </trkpt>
      <trkpt lat="43.31371" lon="-0.5711">
        <ele>146.257813</ele>
        <time>2014-09-07T06:46:39Z</time>
      </trkpt>
      <trkpt lat="43.31302" lon="-0.57095">
        <ele>146.257813</ele>
        <time>2014-09-07T06:46:50Z</time>
      </trkpt>
      <trkpt lat="43.31271" lon="-0.57088">
        <ele>146.257813</ele>
        <time>2014-09-07T06:46:55Z</time>
      </trkpt>
      <trkpt lat="43.31246" lon="-0.5706">
        <ele>145.296387</ele>
        <time>2014-09-07T06:47:00Z</time>
      </trkpt>
      <trkpt lat="43.31193" lon="-0.56968">
        <ele>141.931763</ele>
        <time>2014-09-07T06:47:12Z</time>
      </trkpt>
      <trkpt lat="43.31167" lon="-0.569">
        <ele>141.931763</ele>
        <time>2014-09-07T06:47:20Z</time>
      </trkpt>
      <trkpt lat="43.31144" lon="-0.56867">
        <ele>141.45105</ele>
        <time>2014-09-07T06:47:25Z</time>
      </trkpt>
      <trkpt lat="43.31094" lon="-0.56834">
        <ele>142.412476</ele>
        <time>2014-09-07T06:47:33Z</time>
      </trkpt>
      <trkpt lat="43.31065" lon="-0.56844">
        <ele>142.412476</ele>
        <time>2014-09-07T06:47:39Z</time>
      </trkpt>
      <trkpt lat="43.31002" lon="-0.56934">
        <ele>145.7771</ele>
        <time>2014-09-07T06:47:57Z</time>
      </trkpt>
      <trkpt lat="43.30975" lon="-0.56973">
        <ele>146.738403</ele>
        <time>2014-09-07T06:48:05Z</time>
      </trkpt>
      <trkpt lat="43.30968" lon="-0.56996">
        <ele>147.218994</ele>
        <time>2014-09-07T06:48:09Z</time>
      </trkpt>
      <trkpt lat="43.30964" lon="-0.57065">
        <ele>150.103027</ele>
        <time>2014-09-07T06:48:22Z</time>
      </trkpt>
      <trkpt lat="43.30966" lon="-0.57097">
        <ele>151.544922</ele>
        <time>2014-09-07T06:48:28Z</time>
      </trkpt>
      <trkpt lat="43.30975" lon="-0.5718">
        <ele>153.467651</ele>
        <time>2014-09-07T06:48:44Z</time>
      </trkpt>
      <trkpt lat="43.30993" lon="-0.57248">
        <ele>155.390259</ele>
        <time>2014-09-07T06:48:57Z</time>
      </trkpt>
      <trkpt lat="43.30991" lon="-0.57268">
        <ele>156.351563</ele>
        <time>2014-09-07T06:49:01Z</time>
      </trkpt>
      <trkpt lat="43.30983" lon="-0.57298">
        <ele>156.351563</ele>
        <time>2014-09-07T06:49:07Z</time>
      </trkpt>
      <trkpt lat="43.30962" lon="-0.57302">
        <ele>157.312866</ele>
        <time>2014-09-07T06:49:13Z</time>
      </trkpt>
      <trkpt lat="43.30881" lon="-0.57263">
        <ele>159.235474</ele>
        <time>2014-09-07T06:49:33Z</time>
      </trkpt>
      <trkpt lat="43.3079" lon="-0.57243">
        <ele>158.27417</ele>
        <time>2014-09-07T06:49:50Z</time>
      </trkpt>
      <trkpt lat="43.30762" lon="-0.57263">
        <ele>161.158203</ele>
        <time>2014-09-07T06:49:57Z</time>
      </trkpt>
      <trkpt lat="43.30718" lon="-0.5736">
        <ele>163.561523</ele>
        <time>2014-09-07T06:50:18Z</time>
      </trkpt>
      <trkpt lat="43.30699" lon="-0.5741">
        <ele>166.926025</ele>
        <time>2014-09-07T06:50:29Z</time>
      </trkpt>
      <trkpt lat="43.30693" lon="-0.57426">
        <ele>167.887329</ele>
        <time>2014-09-07T06:50:33Z</time>
      </trkpt>
      <trkpt lat="43.30682" lon="-0.57428">
        <ele>168.368042</ele>
        <time>2014-09-07T06:50:37Z</time>
      </trkpt>
      <trkpt lat="43.30604" lon="-0.57371">
        <ele>164.522705</ele>
        <time>2014-09-07T06:50:52Z</time>
      </trkpt>
      <trkpt lat="43.3049" lon="-0.5728">
        <ele>162.600098</ele>
        <time>2014-09-07T06:51:13Z</time>
      </trkpt>
      <trkpt lat="43.3045" lon="-0.57218">
        <ele>160.196899</ele>
        <time>2014-09-07T06:51:21Z</time>
      </trkpt>
      <trkpt lat="43.30407" lon="-0.57209">
        <ele>157.312866</ele>
        <time>2014-09-07T06:51:27Z</time>
      </trkpt>
      <trkpt lat="43.30345" lon="-0.57203">
        <ele>161.158203</ele>
        <time>2014-09-07T06:51:37Z</time>
      </trkpt>
      <trkpt lat="43.30254" lon="-0.57196">
        <ele>161.158203</ele>
        <time>2014-09-07T06:51:54Z</time>
      </trkpt>
      <trkpt lat="43.30229" lon="-0.57224">
        <ele>162.119507</ele>
        <time>2014-09-07T06:52:01Z</time>
      </trkpt>
      <trkpt lat="43.30219" lon="-0.57293">
        <ele>165.003418</ele>
        <time>2014-09-07T06:52:12Z</time>
      </trkpt>
      <trkpt lat="43.30198" lon="-0.57363">
        <ele>168.368042</ele>
        <time>2014-09-07T06:52:26Z</time>
      </trkpt>
      <trkpt lat="43.30193" lon="-0.57429">
        <ele>171.252075</ele>
        <time>2014-09-07T06:52:43Z</time>
      </trkpt>
      <trkpt lat="43.30201" lon="-0.57461">
        <ele>174.616577</ele>
        <time>2014-09-07T06:52:52Z</time>
      </trkpt>
      <trkpt lat="43.30206" lon="-0.5751">
        <ele>177.981201</ele>
        <time>2014-09-07T06:53:06Z</time>
      </trkpt>
      <trkpt lat="43.30206" lon="-0.57553">
        <ele>180.865234</ele>
        <time>2014-09-07T06:53:19Z</time>
      </trkpt>
      <trkpt lat="43.30208" lon="-0.57594">
        <ele>184.229858</ele>
        <time>2014-09-07T06:53:31Z</time>
      </trkpt>
      <trkpt lat="43.30209" lon="-0.5767">
        <ele>187.59436</ele>
        <time>2014-09-07T06:53:53Z</time>
      </trkpt>
      <trkpt lat="43.30206" lon="-0.57709">
        <ele>190.478394</ele>
        <time>2014-09-07T06:54:04Z</time>
      </trkpt>
      <trkpt lat="43.30195" lon="-0.57766">
        <ele>193.843018</ele>
        <time>2014-09-07T06:54:21Z</time>
      </trkpt>
      <trkpt lat="43.30195" lon="-0.57782">
        <ele>193.843018</ele>
        <time>2014-09-07T06:54:26Z</time>
      </trkpt>
      <trkpt lat="43.30205" lon="-0.578">
        <ele>192.401123</ele>
        <time>2014-09-07T06:54:31Z</time>
      </trkpt>
      <trkpt lat="43.3022" lon="-0.57817">
        <ele>190.958984</ele>
        <time>2014-09-07T06:54:35Z</time>
      </trkpt>
      <trkpt lat="43.30229" lon="-0.57824">
        <ele>189.997681</ele>
        <time>2014-09-07T06:54:38Z</time>
      </trkpt>
      <trkpt lat="43.30241" lon="-0.57808">
        <ele>186.633179</ele>
        <time>2014-09-07T06:54:42Z</time>
      </trkpt>
      <trkpt lat="43.30244" lon="-0.57791">
        <ele>185.671753</ele>
        <time>2014-09-07T06:54:44Z</time>
      </trkpt>
      <trkpt lat="43.30255" lon="-0.57763">
        <ele>185.191162</ele>
        <time>2014-09-07T06:54:48Z</time>
      </trkpt>
      <trkpt lat="43.30288" lon="-0.57744">
        <ele>182.307129</ele>
        <time>2014-09-07T06:54:54Z</time>
      </trkpt>
      <trkpt lat="43.30321" lon="-0.57771">
        <ele>181.345825</ele>
        <time>2014-09-07T06:55:01Z</time>
      </trkpt>
      <trkpt lat="43.30332" lon="-0.57812">
        <ele>180.384521</ele>
        <time>2014-09-07T06:55:12Z</time>
      </trkpt>
      <trkpt lat="43.30321" lon="-0.57833">
        <ele>181.345825</ele>
        <time>2014-09-07T06:55:21Z</time>
      </trkpt>
      <trkpt lat="43.30315" lon="-0.57838">
        <ele>183.268433</ele>
        <time>2014-09-07T06:55:24Z</time>
      </trkpt>
      <trkpt lat="43.3031" lon="-0.57869">
        <ele>183.749023</ele>
        <time>2014-09-07T06:55:36Z</time>
      </trkpt>
      <trkpt lat="43.30312" lon="-0.57874">
        <ele>183.268433</ele>
        <time>2014-09-07T06:55:37Z</time>
      </trkpt>
      <trkpt lat="43.30326" lon="-0.57898">
        <ele>178.461914</ele>
        <time>2014-09-07T06:55:41Z</time>
      </trkpt>
      <trkpt lat="43.30339" lon="-0.57916">
        <ele>177.981201</ele>
        <time>2014-09-07T06:55:47Z</time>
      </trkpt>
      <trkpt lat="43.30333" lon="-0.57939">
        <ele>178.942627</ele>
        <time>2014-09-07T06:55:54Z</time>
      </trkpt>
      <trkpt lat="43.30328" lon="-0.57985">
        <ele>179.903809</ele>
        <time>2014-09-07T06:56:07Z</time>
      </trkpt>
      <trkpt lat="43.30331" lon="-0.58005">
        <ele>182.787842</ele>
        <time>2014-09-07T06:56:15Z</time>
      </trkpt>
      <trkpt lat="43.30337" lon="-0.58013">
        <ele>182.787842</ele>
        <time>2014-09-07T06:56:19Z</time>
      </trkpt>
      <trkpt lat="43.30333" lon="-0.58023">
        <ele>183.749023</ele>
        <time>2014-09-07T06:56:24Z</time>
      </trkpt>
      <trkpt lat="43.30302" lon="-0.58062">
        <ele>186.633179</ele>
        <time>2014-09-07T06:56:41Z</time>
      </trkpt>
      <trkpt lat="43.30301" lon="-0.58065">
        <ele>186.633179</ele>
        <time>2014-09-07T06:56:42Z</time>
      </trkpt>
      <trkpt lat="43.30293" lon="-0.58086">
        <ele>188.555786</ele>
        <time>2014-09-07T06:56:51Z</time>
      </trkpt>
      <trkpt lat="43.30275" lon="-0.5811">
        <ele>190.478394</ele>
        <time>2014-09-07T06:57:02Z</time>
      </trkpt>
      <trkpt lat="43.30266" lon="-0.58152">
        <ele>193.362305</ele>
        <time>2014-09-07T06:57:16Z</time>
      </trkpt>
      <trkpt lat="43.30255" lon="-0.58204">
        <ele>196.246338</ele>
        <time>2014-09-07T06:57:34Z</time>
      </trkpt>
      <trkpt lat="43.30235" lon="-0.58235">
        <ele>199.61084</ele>
        <time>2014-09-07T06:57:50Z</time>
      </trkpt>
      <trkpt lat="43.30233" lon="-0.58236">
        <ele>200.091675</ele>
        <time>2014-09-07T06:57:51Z</time>
      </trkpt>
      <trkpt lat="43.30217" lon="-0.58246">
        <ele>202.975464</ele>
        <time>2014-09-07T06:58:02Z</time>
      </trkpt>
      <trkpt lat="43.30215" lon="-0.58247">
        <ele>202.975464</ele>
        <time>2014-09-07T06:58:03Z</time>
      </trkpt>
      <trkpt lat="43.30205" lon="-0.5825">
        <ele>205.859497</ele>
        <time>2014-09-07T06:58:10Z</time>
      </trkpt>
      <trkpt lat="43.30185" lon="-0.58254">
        <ele>209.224121</ele>
        <time>2014-09-07T06:58:24Z</time>
      </trkpt>
      <trkpt lat="43.3016" lon="-0.58255">
        <ele>212.108032</ele>
        <time>2014-09-07T06:58:42Z</time>
      </trkpt>
      <trkpt lat="43.30147" lon="-0.58255">
        <ele>215.472656</ele>
        <time>2014-09-07T06:58:52Z</time>
      </trkpt>
      <trkpt lat="43.30143" lon="-0.58255">
        <ele>216.914673</ele>
        <time>2014-09-07T06:58:55Z</time>
      </trkpt>
      <trkpt lat="43.30128" lon="-0.58282">
        <ele>217.875977</ele>
        <time>2014-09-07T06:59:12Z</time>
      </trkpt>
      <trkpt lat="43.30116" lon="-0.58313">
        <ele>221.721191</ele>
        <time>2014-09-07T06:59:31Z</time>
      </trkpt>
      <trkpt lat="43.30116" lon="-0.58315">
        <ele>221.721191</ele>
        <time>2014-09-07T06:59:32Z</time>
      </trkpt>
      <trkpt lat="43.30125" lon="-0.58346">
        <ele>224.124512</ele>
        <time>2014-09-07T06:59:49Z</time>
      </trkpt>
      <trkpt lat="43.30129" lon="-0.58359">
        <ele>225.566528</ele>
        <time>2014-09-07T07:00:02Z</time>
      </trkpt>
      <trkpt lat="43.30136" lon="-0.5838">
        <ele>228.931152</ele>
        <time>2014-09-07T07:00:20Z</time>
      </trkpt>
      <trkpt lat="43.3014" lon="-0.58401">
        <ele>231.814941</ele>
        <time>2014-09-07T07:00:35Z</time>
      </trkpt>
      <trkpt lat="43.30138" lon="-0.58422">
        <ele>235.179688</ele>
        <time>2014-09-07T07:00:50Z</time>
      </trkpt>
      <trkpt lat="43.30145" lon="-0.58437">
        <ele>234.699097</ele>
        <time>2014-09-07T07:01:02Z</time>
      </trkpt>
      <trkpt lat="43.30187" lon="-0.58454">
        <ele>234.699097</ele>
        <time>2014-09-07T07:01:20Z</time>
      </trkpt>
      <trkpt lat="43.30227" lon="-0.58461">
        <ele>234.218384</ele>
        <time>2014-09-07T07:01:35Z</time>
      </trkpt>
      <trkpt lat="43.3027" lon="-0.58461">
        <ele>234.218384</ele>
        <time>2014-09-07T07:01:50Z</time>
      </trkpt>
      <trkpt lat="43.30294" lon="-0.58461">
        <ele>235.179688</ele>
        <time>2014-09-07T07:02:01Z</time>
      </trkpt>
      <trkpt lat="43.30319" lon="-0.58469">
        <ele>237.582886</ele>
        <time>2014-09-07T07:02:20Z</time>
      </trkpt>
      <trkpt lat="43.30339" lon="-0.58489">
        <ele>240.947632</ele>
        <time>2014-09-07T07:02:35Z</time>
      </trkpt>
      <trkpt lat="43.30353" lon="-0.58508">
        <ele>244.312256</ele>
        <time>2014-09-07T07:02:49Z</time>
      </trkpt>
      <trkpt lat="43.30363" lon="-0.58534">
        <ele>248.157593</ele>
        <time>2014-09-07T07:03:04Z</time>
      </trkpt>
      <trkpt lat="43.30364" lon="-0.58564">
        <ele>251.522095</ele>
        <time>2014-09-07T07:03:19Z</time>
      </trkpt>
      <trkpt lat="43.30367" lon="-0.58584">
        <ele>252.483398</ele>
        <time>2014-09-07T07:03:35Z</time>
      </trkpt>
      <trkpt lat="43.30369" lon="-0.5858">
        <ele>252.963989</ele>
        <time>2014-09-07T07:03:40Z</time>
      </trkpt>
      <trkpt lat="43.30376" lon="-0.58552">
        <ele>253.925415</ele>
        <time>2014-09-07T07:03:56Z</time>
      </trkpt>
      <trkpt lat="43.3039" lon="-0.58534">
        <ele>255.848022</ele>
        <time>2014-09-07T07:04:10Z</time>
      </trkpt>
      <trkpt lat="43.3041" lon="-0.58523">
        <ele>258.731934</ele>
        <time>2014-09-07T07:04:28Z</time>
      </trkpt>
      <trkpt lat="43.30417" lon="-0.58519">
        <ele>258.731934</ele>
        <time>2014-09-07T07:04:41Z</time>
      </trkpt>
      <trkpt lat="43.30426" lon="-0.58513">
        <ele>260.17395</ele>
        <time>2014-09-07T07:04:54Z</time>
      </trkpt>
      <trkpt lat="43.30431" lon="-0.58509">
        <ele>262.096558</ele>
        <time>2014-09-07T07:05:03Z</time>
      </trkpt>
      <trkpt lat="43.3045" lon="-0.58488">
        <ele>263.057861</ele>
        <time>2014-09-07T07:05:17Z</time>
      </trkpt>
      <trkpt lat="43.30476" lon="-0.58456">
        <ele>263.538574</ele>
        <time>2014-09-07T07:05:33Z</time>
      </trkpt>
      <trkpt lat="43.30503" lon="-0.58433">
        <ele>264.499878</ele>
        <time>2014-09-07T07:05:49Z</time>
      </trkpt>
      <trkpt lat="43.30523" lon="-0.58432">
        <ele>266.903198</ele>
        <time>2014-09-07T07:06:02Z</time>
      </trkpt>
      <trkpt lat="43.30545" lon="-0.58436">
        <ele>266.422485</ele>
        <time>2014-09-07T07:06:18Z</time>
      </trkpt>
      <trkpt lat="43.30557" lon="-0.58437">
        <ele>265.461304</ele>
        <time>2014-09-07T07:06:32Z</time>
      </trkpt>
      <trkpt lat="43.30565" lon="-0.58439">
        <ele>264.499878</ele>
        <time>2014-09-07T07:06:44Z</time>
      </trkpt>
      <trkpt lat="43.30567" lon="-0.58442">
        <ele>265.461304</ele>
        <time>2014-09-07T07:06:48Z</time>
      </trkpt>
      <trkpt lat="43.30563" lon="-0.58458">
        <ele>268.345093</ele>
        <time>2014-09-07T07:07:01Z</time>
      </trkpt>
      <trkpt lat="43.30561" lon="-0.58462">
        <ele>269.787109</ele>
        <time>2014-09-07T07:07:04Z</time>
      </trkpt>
      <trkpt lat="43.30552" lon="-0.58482">
        <ele>273.151855</ele>
        <time>2014-09-07T07:07:20Z</time>
      </trkpt>
      <trkpt lat="43.30545" lon="-0.58512">
        <ele>274.113037</ele>
        <time>2014-09-07T07:07:39Z</time>
      </trkpt>
      <trkpt lat="43.30529" lon="-0.58521">
        <ele>277.477661</ele>
        <time>2014-09-07T07:07:54Z</time>
      </trkpt>
      <trkpt lat="43.30527" lon="-0.58522">
        <ele>277.958252</ele>
        <time>2014-09-07T07:07:55Z</time>
      </trkpt>
      <trkpt lat="43.30508" lon="-0.58535">
        <ele>278.919678</ele>
        <time>2014-09-07T07:08:14Z</time>
      </trkpt>
      <trkpt lat="43.30491" lon="-0.58556">
        <ele>277.958252</ele>
        <time>2014-09-07T07:08:34Z</time>
      </trkpt>
      <trkpt lat="43.30489" lon="-0.58559">
        <ele>278.438965</ele>
        <time>2014-09-07T07:08:47Z</time>
      </trkpt>
      <trkpt lat="43.30485" lon="-0.58563">
        <ele>279.400269</ele>
        <time>2014-09-07T07:09:07Z</time>
      </trkpt>
      <trkpt lat="43.30474" lon="-0.58588">
        <ele>277.958252</ele>
        <time>2014-09-07T07:09:28Z</time>
      </trkpt>
      <trkpt lat="43.30476" lon="-0.58595">
        <ele>278.438965</ele>
        <time>2014-09-07T07:09:44Z</time>
      </trkpt>
      <trkpt lat="43.30476" lon="-0.58595">
        <ele>277.477661</ele>
        <time>2014-09-07T07:10:18Z</time>
      </trkpt>
      <trkpt lat="43.30476" lon="-0.58596">
        <ele>277.477661</ele>
        <time>2014-09-07T07:10:23Z</time>
      </trkpt>
      <trkpt lat="43.30477" lon="-0.58645">
        <ele>275.074463</ele>
        <time>2014-09-07T07:10:35Z</time>
      </trkpt>
      <trkpt lat="43.30477" lon="-0.58659">
        <ele>274.113037</ele>
        <time>2014-09-07T07:10:37Z</time>
      </trkpt>
      <trkpt lat="43.30468" lon="-0.58703">
        <ele>271.229126</ele>
        <time>2014-09-07T07:10:46Z</time>
      </trkpt>
      <trkpt lat="43.30464" lon="-0.58712">
        <ele>269.306519</ele>
        <time>2014-09-07T07:10:49Z</time>
      </trkpt>
      <trkpt lat="43.30464" lon="-0.58714">
        <ele>267.864502</ele>
        <time>2014-09-07T07:10:50Z</time>
      </trkpt>
      <trkpt lat="43.30469" lon="-0.58725">
        <ele>268.825806</ele>
        <time>2014-09-07T07:10:54Z</time>
      </trkpt>
      <trkpt lat="43.30483" lon="-0.58757">
        <ele>268.825806</ele>
        <time>2014-09-07T07:11:04Z</time>
      </trkpt>
      <trkpt lat="43.30485" lon="-0.58797">
        <ele>265.461304</ele>
        <time>2014-09-07T07:11:13Z</time>
      </trkpt>
      <trkpt lat="43.30489" lon="-0.58807">
        <ele>266.422485</ele>
        <time>2014-09-07T07:11:15Z</time>
      </trkpt>
      <trkpt lat="43.30514" lon="-0.58869">
        <ele>266.422485</ele>
        <time>2014-09-07T07:11:29Z</time>
      </trkpt>
      <trkpt lat="43.30519" lon="-0.5891">
        <ele>266.422485</ele>
        <time>2014-09-07T07:11:40Z</time>
      </trkpt>
      <trkpt lat="43.30524" lon="-0.58927">
        <ele>267.864502</ele>
        <time>2014-09-07T07:11:52Z</time>
      </trkpt>
      <trkpt lat="43.30526" lon="-0.58935">
        <ele>267.864502</ele>
        <time>2014-09-07T07:12:06Z</time>
      </trkpt>
      <trkpt lat="43.30533" lon="-0.58941">
        <ele>268.825806</ele>
        <time>2014-09-07T07:12:16Z</time>
      </trkpt>
      <trkpt lat="43.30541" lon="-0.58942">
        <ele>270.748413</ele>
        <time>2014-09-07T07:12:28Z</time>
      </trkpt>
      <trkpt lat="43.30568" lon="-0.58943">
        <ele>271.229126</ele>
        <time>2014-09-07T07:12:41Z</time>
      </trkpt>
      <trkpt lat="43.30594" lon="-0.58959">
        <ele>271.229126</ele>
        <time>2014-09-07T07:12:51Z</time>
      </trkpt>
      <trkpt lat="43.30612" lon="-0.58976">
        <ele>268.825806</ele>
        <time>2014-09-07T07:12:57Z</time>
      </trkpt>
      <trkpt lat="43.30623" lon="-0.58993">
        <ele>267.864502</ele>
        <time>2014-09-07T07:13:01Z</time>
      </trkpt>
      <trkpt lat="43.30627" lon="-0.59003">
        <ele>266.903198</ele>
        <time>2014-09-07T07:13:03Z</time>
      </trkpt>
      <trkpt lat="43.30635" lon="-0.59034">
        <ele>265.941895</ele>
        <time>2014-09-07T07:13:08Z</time>
      </trkpt>
      <trkpt lat="43.30642" lon="-0.59066">
        <ele>261.135254</ele>
        <time>2014-09-07T07:13:13Z</time>
      </trkpt>
      <trkpt lat="43.30647" lon="-0.59089">
        <ele>256.809326</ele>
        <time>2014-09-07T07:13:16Z</time>
      </trkpt>
      <trkpt lat="43.30651" lon="-0.59105">
        <ele>255.848022</ele>
        <time>2014-09-07T07:13:18Z</time>
      </trkpt>
      <trkpt lat="43.30655" lon="-0.59123">
        <ele>252.002808</ele>
        <time>2014-09-07T07:13:21Z</time>
      </trkpt>
      <trkpt lat="43.3066" lon="-0.59132">
        <ele>251.041382</ele>
        <time>2014-09-07T07:13:24Z</time>
      </trkpt>
      <trkpt lat="43.30664" lon="-0.59127">
        <ele>249.118774</ele>
        <time>2014-09-07T07:13:28Z</time>
      </trkpt>
      <trkpt lat="43.30672" lon="-0.59083">
        <ele>245.273438</ele>
        <time>2014-09-07T07:13:37Z</time>
      </trkpt>
      <trkpt lat="43.30674" lon="-0.59077">
        <ele>244.312256</ele>
        <time>2014-09-07T07:13:38Z</time>
      </trkpt>
      <trkpt lat="43.30678" lon="-0.59065">
        <ele>242.870239</ele>
        <time>2014-09-07T07:13:40Z</time>
      </trkpt>
      <trkpt lat="43.30679" lon="-0.5906">
        <ele>241.428223</ele>
        <time>2014-09-07T07:13:41Z</time>
      </trkpt>
      <trkpt lat="43.3069" lon="-0.59092">
        <ele>239.505493</ele>
        <time>2014-09-07T07:13:48Z</time>
      </trkpt>
      <trkpt lat="43.30695" lon="-0.59126">
        <ele>238.544312</ele>
        <time>2014-09-07T07:13:52Z</time>
      </trkpt>
      <trkpt lat="43.30707" lon="-0.59153">
        <ele>234.699097</ele>
        <time>2014-09-07T07:13:56Z</time>
      </trkpt>
      <trkpt lat="43.30716" lon="-0.59201">
        <ele>232.776489</ele>
        <time>2014-09-07T07:14:01Z</time>
      </trkpt>
      <trkpt lat="43.30732" lon="-0.59226">
        <ele>228.450439</ele>
        <time>2014-09-07T07:14:06Z</time>
      </trkpt>
      <trkpt lat="43.30735" lon="-0.59228">
        <ele>228.450439</ele>
        <time>2014-09-07T07:14:07Z</time>
      </trkpt>
      <trkpt lat="43.30743" lon="-0.59229">
        <ele>226.047119</ele>
        <time>2014-09-07T07:14:10Z</time>
      </trkpt>
      <trkpt lat="43.30743" lon="-0.59239">
        <ele>227.008545</ele>
        <time>2014-09-07T07:14:14Z</time>
      </trkpt>
      <trkpt lat="43.30711" lon="-0.59294">
        <ele>228.931152</ele>
        <time>2014-09-07T07:14:26Z</time>
      </trkpt>
      <trkpt lat="43.30705" lon="-0.5932">
        <ele>229.892334</ele>
        <time>2014-09-07T07:14:31Z</time>
      </trkpt>
      <trkpt lat="43.30705" lon="-0.59362">
        <ele>233.25708</ele>
        <time>2014-09-07T07:14:44Z</time>
      </trkpt>
      <trkpt lat="43.30705" lon="-0.59389">
        <ele>237.102295</ele>
        <time>2014-09-07T07:14:53Z</time>
      </trkpt>
      <trkpt lat="43.30705" lon="-0.59392">
        <ele>237.102295</ele>
        <time>2014-09-07T07:14:54Z</time>
      </trkpt>
      <trkpt lat="43.30705" lon="-0.59429">
        <ele>240.467041</ele>
        <time>2014-09-07T07:15:08Z</time>
      </trkpt>
      <trkpt lat="43.30708" lon="-0.59459">
        <ele>243.831543</ele>
        <time>2014-09-07T07:15:22Z</time>
      </trkpt>
      <trkpt lat="43.30711" lon="-0.59488">
        <ele>247.196045</ele>
        <time>2014-09-07T07:15:33Z</time>
      </trkpt>
      <trkpt lat="43.30721" lon="-0.59548">
        <ele>249.599487</ele>
        <time>2014-09-07T07:15:54Z</time>
      </trkpt>
      <trkpt lat="43.30744" lon="-0.59632">
        <ele>247.196045</ele>
        <time>2014-09-07T07:16:11Z</time>
      </trkpt>
      <trkpt lat="43.30755" lon="-0.59674">
        <ele>244.312256</ele>
        <time>2014-09-07T07:16:16Z</time>
      </trkpt>
      <trkpt lat="43.30758" lon="-0.5969">
        <ele>241.908936</ele>
        <time>2014-09-07T07:16:18Z</time>
      </trkpt>
      <trkpt lat="43.3076" lon="-0.59707">
        <ele>240.947632</ele>
        <time>2014-09-07T07:16:20Z</time>
      </trkpt>
      <trkpt lat="43.30745" lon="-0.59743">
        <ele>236.140991</ele>
        <time>2014-09-07T07:16:26Z</time>
      </trkpt>
      <trkpt lat="43.30734" lon="-0.59767">
        <ele>232.295776</ele>
        <time>2014-09-07T07:16:30Z</time>
      </trkpt>
      <trkpt lat="43.30746" lon="-0.59786">
        <ele>229.892334</ele>
        <time>2014-09-07T07:16:36Z</time>
      </trkpt>
      <trkpt lat="43.30756" lon="-0.59773">
        <ele>230.373047</ele>
        <time>2014-09-07T07:16:42Z</time>
      </trkpt>
      <trkpt lat="43.30763" lon="-0.59769">
        <ele>229.892334</ele>
        <time>2014-09-07T07:16:44Z</time>
      </trkpt>
      <trkpt lat="43.3078" lon="-0.59749">
        <ele>226.527832</ele>
        <time>2014-09-07T07:16:49Z</time>
      </trkpt>
      <trkpt lat="43.30783" lon="-0.59745">
        <ele>226.047119</ele>
        <time>2014-09-07T07:16:50Z</time>
      </trkpt>
      <trkpt lat="43.30798" lon="-0.59749">
        <ele>223.163208</ele>
        <time>2014-09-07T07:16:57Z</time>
      </trkpt>
      <trkpt lat="43.30806" lon="-0.59759">
        <ele>221.721191</ele>
        <time>2014-09-07T07:17:00Z</time>
      </trkpt>
      <trkpt lat="43.30834" lon="-0.59788">
        <ele>217.395386</ele>
        <time>2014-09-07T07:17:07Z</time>
      </trkpt>
      <trkpt lat="43.30842" lon="-0.59796">
        <ele>216.43396</ele>
        <time>2014-09-07T07:17:09Z</time>
      </trkpt>
      <trkpt lat="43.30855" lon="-0.59807">
        <ele>212.588623</ele>
        <time>2014-09-07T07:17:12Z</time>
      </trkpt>
      <trkpt lat="43.30868" lon="-0.59818">
        <ele>210.666016</ele>
        <time>2014-09-07T07:17:15Z</time>
      </trkpt>
      <trkpt lat="43.30886" lon="-0.59826">
        <ele>206.340088</ele>
        <time>2014-09-07T07:17:19Z</time>
      </trkpt>
      <trkpt lat="43.30895" lon="-0.59831">
        <ele>202.975464</ele>
        <time>2014-09-07T07:17:22Z</time>
      </trkpt>
      <trkpt lat="43.30899" lon="-0.59834">
        <ele>201.533569</ele>
        <time>2014-09-07T07:17:24Z</time>
      </trkpt>
      <trkpt lat="43.30901" lon="-0.59839">
        <ele>200.572266</ele>
        <time>2014-09-07T07:17:26Z</time>
      </trkpt>
      <trkpt lat="43.30899" lon="-0.59861">
        <ele>200.572266</ele>
        <time>2014-09-07T07:17:31Z</time>
      </trkpt>
      <trkpt lat="43.30912" lon="-0.59871">
        <ele>197.20752</ele>
        <time>2014-09-07T07:17:36Z</time>
      </trkpt>
      <trkpt lat="43.30923" lon="-0.59878">
        <ele>193.843018</ele>
        <time>2014-09-07T07:17:40Z</time>
      </trkpt>
      <trkpt lat="43.30932" lon="-0.59887">
        <ele>191.920288</ele>
        <time>2014-09-07T07:17:43Z</time>
      </trkpt>
      <trkpt lat="43.30958" lon="-0.59912">
        <ele>187.11377</ele>
        <time>2014-09-07T07:17:51Z</time>
      </trkpt>
      <trkpt lat="43.30961" lon="-0.59916">
        <ele>186.633179</ele>
        <time>2014-09-07T07:17:52Z</time>
      </trkpt>
      <trkpt lat="43.30968" lon="-0.59933">
        <ele>185.191162</ele>
        <time>2014-09-07T07:17:55Z</time>
      </trkpt>
      <trkpt lat="43.30975" lon="-0.5996">
        <ele>181.345825</ele>
        <time>2014-09-07T07:17:59Z</time>
      </trkpt>
      <trkpt lat="43.30977" lon="-0.59982">
        <ele>179.423218</ele>
        <time>2014-09-07T07:18:02Z</time>
      </trkpt>
      <trkpt lat="43.30982" lon="-0.60002">
        <ele>178.461914</ele>
        <time>2014-09-07T07:18:05Z</time>
      </trkpt>
      <trkpt lat="43.30987" lon="-0.60024">
        <ele>177.50061</ele>
        <time>2014-09-07T07:18:08Z</time>
      </trkpt>
      <trkpt lat="43.30995" lon="-0.60051">
        <ele>175.577881</ele>
        <time>2014-09-07T07:18:12Z</time>
      </trkpt>
      <trkpt lat="43.30999" lon="-0.60063">
        <ele>174.616577</ele>
        <time>2014-09-07T07:18:14Z</time>
      </trkpt>
      <trkpt lat="43.31001" lon="-0.60075">
        <ele>174.135864</ele>
        <time>2014-09-07T07:18:16Z</time>
      </trkpt>
      <trkpt lat="43.31007" lon="-0.60093">
        <ele>172.213257</ele>
        <time>2014-09-07T07:18:19Z</time>
      </trkpt>
      <trkpt lat="43.31015" lon="-0.60121">
        <ele>170.771362</ele>
        <time>2014-09-07T07:18:23Z</time>
      </trkpt>
      <trkpt lat="43.31019" lon="-0.60151">
        <ele>168.368042</ele>
        <time>2014-09-07T07:18:27Z</time>
      </trkpt>
      <trkpt lat="43.31024" lon="-0.60187">
        <ele>165.964722</ele>
        <time>2014-09-07T07:18:32Z</time>
      </trkpt>
      <trkpt lat="43.31028" lon="-0.60236">
        <ele>161.638916</ele>
        <time>2014-09-07T07:18:39Z</time>
      </trkpt>
      <trkpt lat="43.31028" lon="-0.60264">
        <ele>160.196899</ele>
        <time>2014-09-07T07:18:42Z</time>
      </trkpt>
      <trkpt lat="43.31026" lon="-0.6029">
        <ele>158.27417</ele>
        <time>2014-09-07T07:18:45Z</time>
      </trkpt>
      <trkpt lat="43.31025" lon="-0.60326">
        <ele>157.312866</ele>
        <time>2014-09-07T07:18:49Z</time>
      </trkpt>
      <trkpt lat="43.31016" lon="-0.6037">
        <ele>154.909546</ele>
        <time>2014-09-07T07:18:54Z</time>
      </trkpt>
      <trkpt lat="43.31015" lon="-0.60378">
        <ele>153.467651</ele>
        <time>2014-09-07T07:18:55Z</time>
      </trkpt>
      <trkpt lat="43.31012" lon="-0.60408">
        <ele>151.064209</ele>
        <time>2014-09-07T07:18:58Z</time>
      </trkpt>
      <trkpt lat="43.31004" lon="-0.6046">
        <ele>147.699707</ele>
        <time>2014-09-07T07:19:05Z</time>
      </trkpt>
      <trkpt lat="43.31" lon="-0.60474">
        <ele>145.7771</ele>
        <time>2014-09-07T07:19:07Z</time>
      </trkpt>
      <trkpt lat="43.30981" lon="-0.60506">
        <ele>143.373657</ele>
        <time>2014-09-07T07:19:13Z</time>
      </trkpt>
      <trkpt lat="43.30951" lon="-0.60529">
        <ele>141.45105</ele>
        <time>2014-09-07T07:19:23Z</time>
      </trkpt>
      <trkpt lat="43.30895" lon="-0.60543">
        <ele>141.931763</ele>
        <time>2014-09-07T07:19:39Z</time>
      </trkpt>
      <trkpt lat="43.30831" lon="-0.60556">
        <ele>144.335205</ele>
        <time>2014-09-07T07:19:59Z</time>
      </trkpt>
      <trkpt lat="43.30825" lon="-0.6056">
        <ele>144.335205</ele>
        <time>2014-09-07T07:20:02Z</time>
      </trkpt>
      <trkpt lat="43.3083" lon="-0.60604">
        <ele>143.85437</ele>
        <time>2014-09-07T07:20:13Z</time>
      </trkpt>
      <trkpt lat="43.30845" lon="-0.60715">
        <ele>140.970459</ele>
        <time>2014-09-07T07:20:29Z</time>
      </trkpt>
      <trkpt lat="43.30869" lon="-0.60796">
        <ele>139.528442</ele>
        <time>2014-09-07T07:20:40Z</time>
      </trkpt>
      <trkpt lat="43.30845" lon="-0.60829">
        <ele>139.047852</ele>
        <time>2014-09-07T07:20:49Z</time>
      </trkpt>
      <trkpt lat="43.30773" lon="-0.60897">
        <ele>139.528442</ele>
        <time>2014-09-07T07:21:11Z</time>
      </trkpt>
      <trkpt lat="43.30732" lon="-0.60923">
        <ele>139.528442</ele>
        <time>2014-09-07T07:21:23Z</time>
      </trkpt>
      <trkpt lat="43.30705" lon="-0.6094">
        <ele>140.489868</ele>
        <time>2014-09-07T07:21:32Z</time>
      </trkpt>
      <trkpt lat="43.30672" lon="-0.60958">
        <ele>140.009155</ele>
        <time>2014-09-07T07:21:45Z</time>
      </trkpt>
      <trkpt lat="43.30668" lon="-0.60957">
        <ele>140.489868</ele>
        <time>2014-09-07T07:21:49Z</time>
      </trkpt>
      <trkpt lat="43.30655" lon="-0.6093">
        <ele>141.45105</ele>
        <time>2014-09-07T07:22:00Z</time>
      </trkpt>
      <trkpt lat="43.30656" lon="-0.60906">
        <ele>142.893066</ele>
        <time>2014-09-07T07:22:12Z</time>
      </trkpt>
      <trkpt lat="43.30664" lon="-0.609">
        <ele>143.85437</ele>
        <time>2014-09-07T07:22:17Z</time>
      </trkpt>
      <trkpt lat="43.30678" lon="-0.60887">
        <ele>145.7771</ele>
        <time>2014-09-07T07:22:31Z</time>
      </trkpt>
      <trkpt lat="43.30685" lon="-0.60877">
        <ele>146.257813</ele>
        <time>2014-09-07T07:22:45Z</time>
      </trkpt>
      <trkpt lat="43.30691" lon="-0.60873">
        <ele>147.218994</ele>
        <time>2014-09-07T07:22:59Z</time>
      </trkpt>
      <trkpt lat="43.30701" lon="-0.60858">
        <ele>148.661011</ele>
        <time>2014-09-07T07:23:11Z</time>
      </trkpt>
      <trkpt lat="43.30712" lon="-0.60848">
        <ele>150.583618</ele>
        <time>2014-09-07T07:23:23Z</time>
      </trkpt>
      <trkpt lat="43.30723" lon="-0.60835">
        <ele>153.467651</ele>
        <time>2014-09-07T07:23:38Z</time>
      </trkpt>
      <trkpt lat="43.30731" lon="-0.60823">
        <ele>155.870972</ele>
        <time>2014-09-07T07:23:54Z</time>
      </trkpt>
      <trkpt lat="43.30737" lon="-0.6081">
        <ele>156.351563</ele>
        <time>2014-09-07T07:24:09Z</time>
      </trkpt>
      <trkpt lat="43.30747" lon="-0.60792">
        <ele>157.793579</ele>
        <time>2014-09-07T07:24:24Z</time>
      </trkpt>
      <trkpt lat="43.30752" lon="-0.60778">
        <ele>160.196899</ele>
        <time>2014-09-07T07:24:33Z</time>
      </trkpt>
      <trkpt lat="43.30756" lon="-0.60759">
        <ele>163.080811</ele>
        <time>2014-09-07T07:24:46Z</time>
      </trkpt>
      <trkpt lat="43.30756" lon="-0.60747">
        <ele>164.522705</ele>
        <time>2014-09-07T07:24:59Z</time>
      </trkpt>
      <trkpt lat="43.30756" lon="-0.60744">
        <ele>165.484131</ele>
        <time>2014-09-07T07:25:01Z</time>
      </trkpt>
      <trkpt lat="43.30753" lon="-0.60725">
        <ele>167.887329</ele>
        <time>2014-09-07T07:25:15Z</time>
      </trkpt>
      <trkpt lat="43.30746" lon="-0.60722">
        <ele>169.810059</ele>
        <time>2014-09-07T07:25:23Z</time>
      </trkpt>
      <trkpt lat="43.30736" lon="-0.60743">
        <ele>172.69397</ele>
        <time>2014-09-07T07:25:40Z</time>
      </trkpt>
      <trkpt lat="43.30728" lon="-0.60753">
        <ele>174.616577</ele>
        <time>2014-09-07T07:25:54Z</time>
      </trkpt>
      <trkpt lat="43.30703" lon="-0.60774">
        <ele>177.981201</ele>
        <time>2014-09-07T07:26:11Z</time>
      </trkpt>
      <trkpt lat="43.30686" lon="-0.60781">
        <ele>181.345825</ele>
        <time>2014-09-07T07:26:22Z</time>
      </trkpt>
      <trkpt lat="43.30652" lon="-0.60784">
        <ele>184.229858</ele>
        <time>2014-09-07T07:26:40Z</time>
      </trkpt>
      <trkpt lat="43.30615" lon="-0.60793">
        <ele>187.11377</ele>
        <time>2014-09-07T07:26:56Z</time>
      </trkpt>
      <trkpt lat="43.30583" lon="-0.60812">
        <ele>189.516968</ele>
        <time>2014-09-07T07:27:11Z</time>
      </trkpt>
      <trkpt lat="43.30561" lon="-0.60822">
        <ele>192.401123</ele>
        <time>2014-09-07T07:27:23Z</time>
      </trkpt>
      <trkpt lat="43.30557" lon="-0.60823">
        <ele>193.843018</ele>
        <time>2014-09-07T07:27:25Z</time>
      </trkpt>
      <trkpt lat="43.30538" lon="-0.60826">
        <ele>197.20752</ele>
        <time>2014-09-07T07:27:35Z</time>
      </trkpt>
      <trkpt lat="43.30513" lon="-0.6083">
        <ele>197.688232</ele>
        <time>2014-09-07T07:27:48Z</time>
      </trkpt>
      <trkpt lat="43.30481" lon="-0.60843">
        <ele>199.130127</ele>
        <time>2014-09-07T07:28:02Z</time>
      </trkpt>
      <trkpt lat="43.30448" lon="-0.60858">
        <ele>202.494873</ele>
        <time>2014-09-07T07:28:15Z</time>
      </trkpt>
      <trkpt lat="43.30434" lon="-0.60862">
        <ele>205.378784</ele>
        <time>2014-09-07T07:28:22Z</time>
      </trkpt>
      <trkpt lat="43.304" lon="-0.60871">
        <ele>207.301392</ele>
        <time>2014-09-07T07:28:39Z</time>
      </trkpt>
      <trkpt lat="43.30363" lon="-0.6089">
        <ele>210.185425</ele>
        <time>2014-09-07T07:28:57Z</time>
      </trkpt>
      <trkpt lat="43.30354" lon="-0.60893">
        <ele>212.108032</ele>
        <time>2014-09-07T07:29:02Z</time>
      </trkpt>
      <trkpt lat="43.30326" lon="-0.60881">
        <ele>215.472656</ele>
        <time>2014-09-07T07:29:18Z</time>
      </trkpt>
      <trkpt lat="43.30302" lon="-0.6085">
        <ele>217.395386</ele>
        <time>2014-09-07T07:29:34Z</time>
      </trkpt>
      <trkpt lat="43.3027" lon="-0.60815">
        <ele>218.83728</ele>
        <time>2014-09-07T07:29:52Z</time>
      </trkpt>
      <trkpt lat="43.30258" lon="-0.60783">
        <ele>220.759888</ele>
        <time>2014-09-07T07:30:05Z</time>
      </trkpt>
      <trkpt lat="43.30244" lon="-0.6077">
        <ele>223.643799</ele>
        <time>2014-09-07T07:30:17Z</time>
      </trkpt>
      <trkpt lat="43.30228" lon="-0.60759">
        <ele>226.527832</ele>
        <time>2014-09-07T07:30:31Z</time>
      </trkpt>
      <trkpt lat="43.30209" lon="-0.6075">
        <ele>229.411743</ele>
        <time>2014-09-07T07:30:44Z</time>
      </trkpt>
      <trkpt lat="43.30187" lon="-0.60736">
        <ele>232.295776</ele>
        <time>2014-09-07T07:31:00Z</time>
      </trkpt>
      <trkpt lat="43.30158" lon="-0.60727">
        <ele>234.218384</ele>
        <time>2014-09-07T07:31:18Z</time>
      </trkpt>
      <trkpt lat="43.30137" lon="-0.60701">
        <ele>236.621704</ele>
        <time>2014-09-07T07:31:35Z</time>
      </trkpt>
      <trkpt lat="43.30131" lon="-0.60689">
        <ele>237.582886</ele>
        <time>2014-09-07T07:31:41Z</time>
      </trkpt>
      <trkpt lat="43.30136" lon="-0.60665">
        <ele>240.947632</ele>
        <time>2014-09-07T07:31:54Z</time>
      </trkpt>
      <trkpt lat="43.30127" lon="-0.6064">
        <ele>244.312256</ele>
        <time>2014-09-07T07:32:07Z</time>
      </trkpt>
      <trkpt lat="43.30115" lon="-0.60615">
        <ele>247.196045</ele>
        <time>2014-09-07T07:32:22Z</time>
      </trkpt>
      <trkpt lat="43.30105" lon="-0.60589">
        <ele>248.157593</ele>
        <time>2014-09-07T07:32:36Z</time>
      </trkpt>
      <trkpt lat="43.30092" lon="-0.60559">
        <ele>251.041382</ele>
        <time>2014-09-07T07:32:51Z</time>
      </trkpt>
      <trkpt lat="43.30069" lon="-0.60519">
        <ele>251.041382</ele>
        <time>2014-09-07T07:33:06Z</time>
      </trkpt>
      <trkpt lat="43.30047" lon="-0.60486">
        <ele>250.560791</ele>
        <time>2014-09-07T07:33:17Z</time>
      </trkpt>
      <trkpt lat="43.30007" lon="-0.60474">
        <ele>249.599487</ele>
        <time>2014-09-07T07:33:28Z</time>
      </trkpt>
      <trkpt lat="43.29997" lon="-0.6048">
        <ele>248.157593</ele>
        <time>2014-09-07T07:33:31Z</time>
      </trkpt>
      <trkpt lat="43.29948" lon="-0.60499">
        <ele>244.312256</ele>
        <time>2014-09-07T07:33:40Z</time>
      </trkpt>
      <trkpt lat="43.29928" lon="-0.60505">
        <ele>242.870239</ele>
        <time>2014-09-07T07:33:43Z</time>
      </trkpt>
      <trkpt lat="43.29906" lon="-0.60514">
        <ele>239.024902</ele>
        <time>2014-09-07T07:33:46Z</time>
      </trkpt>
      <trkpt lat="43.29899" lon="-0.60517">
        <ele>238.544312</ele>
        <time>2014-09-07T07:33:47Z</time>
      </trkpt>
      <trkpt lat="43.29873" lon="-0.60521">
        <ele>237.582886</ele>
        <time>2014-09-07T07:33:51Z</time>
      </trkpt>
      <trkpt lat="43.2986" lon="-0.60519">
        <ele>236.621704</ele>
        <time>2014-09-07T07:33:53Z</time>
      </trkpt>
      <trkpt lat="43.2983" lon="-0.60494">
        <ele>235.660278</ele>
        <time>2014-09-07T07:34:00Z</time>
      </trkpt>
      <trkpt lat="43.29825" lon="-0.60485">
        <ele>236.140991</ele>
        <time>2014-09-07T07:34:02Z</time>
      </trkpt>
      <trkpt lat="43.29813" lon="-0.60476">
        <ele>235.179688</ele>
        <time>2014-09-07T07:34:06Z</time>
      </trkpt>
      <trkpt lat="43.2981" lon="-0.60466">
        <ele>233.737671</ele>
        <time>2014-09-07T07:34:11Z</time>
      </trkpt>
      <trkpt lat="43.29813" lon="-0.60452">
        <ele>234.218384</ele>
        <time>2014-09-07T07:34:15Z</time>
      </trkpt>
      <trkpt lat="43.29814" lon="-0.60448">
        <ele>235.660278</ele>
        <time>2014-09-07T07:34:17Z</time>
      </trkpt>
      <trkpt lat="43.29818" lon="-0.60438">
        <ele>236.140991</ele>
        <time>2014-09-07T07:34:34Z</time>
      </trkpt>
      <trkpt lat="43.29823" lon="-0.60413">
        <ele>234.699097</ele>
        <time>2014-09-07T07:35:06Z</time>
      </trkpt>
      <trkpt lat="43.29826" lon="-0.60399">
        <ele>233.25708</ele>
        <time>2014-09-07T07:35:09Z</time>
      </trkpt>
      <trkpt lat="43.29832" lon="-0.60361">
        <ele>232.776489</ele>
        <time>2014-09-07T07:35:21Z</time>
      </trkpt>
      <trkpt lat="43.29837" lon="-0.60323">
        <ele>232.295776</ele>
        <time>2014-09-07T07:35:37Z</time>
      </trkpt>
      <trkpt lat="43.29839" lon="-0.6031">
        <ele>232.776489</ele>
        <time>2014-09-07T07:35:44Z</time>
      </trkpt>
      <trkpt lat="43.29843" lon="-0.603">
        <ele>232.295776</ele>
        <time>2014-09-07T07:35:49Z</time>
      </trkpt>
      <trkpt lat="43.29847" lon="-0.60275">
        <ele>232.776489</ele>
        <time>2014-09-07T07:36:03Z</time>
      </trkpt>
      <trkpt lat="43.29846" lon="-0.6027">
        <ele>232.776489</ele>
        <time>2014-09-07T07:36:17Z</time>
      </trkpt>
      <trkpt lat="43.29846" lon="-0.60269">
        <ele>232.776489</ele>
        <time>2014-09-07T07:36:20Z</time>
      </trkpt>
      <trkpt lat="43.29839" lon="-0.60233">
        <ele>232.295776</ele>
        <time>2014-09-07T07:36:34Z</time>
      </trkpt>
      <trkpt lat="43.29837" lon="-0.60224">
        <ele>231.814941</ele>
        <time>2014-09-07T07:36:41Z</time>
      </trkpt>
      <trkpt lat="43.29837" lon="-0.60217">
        <ele>231.814941</ele>
        <time>2014-09-07T07:36:45Z</time>
      </trkpt>
      <trkpt lat="43.29835" lon="-0.60203">
        <ele>232.776489</ele>
        <time>2014-09-07T07:36:57Z</time>
      </trkpt>
      <trkpt lat="43.29833" lon="-0.60186">
        <ele>233.25708</ele>
        <time>2014-09-07T07:37:07Z</time>
      </trkpt>
      <trkpt lat="43.29828" lon="-0.60157">
        <ele>235.660278</ele>
        <time>2014-09-07T07:37:20Z</time>
      </trkpt>
      <trkpt lat="43.29826" lon="-0.60145">
        <ele>236.140991</ele>
        <time>2014-09-07T07:37:33Z</time>
      </trkpt>
      <trkpt lat="43.29825" lon="-0.60135">
        <ele>236.621704</ele>
        <time>2014-09-07T07:37:46Z</time>
      </trkpt>
      <trkpt lat="43.29825" lon="-0.60131">
        <ele>237.582886</ele>
        <time>2014-09-07T07:38:12Z</time>
      </trkpt>
      <trkpt lat="43.2982" lon="-0.6011">
        <ele>239.505493</ele>
        <time>2014-09-07T07:38:25Z</time>
      </trkpt>
      <trkpt lat="43.29819" lon="-0.601">
        <ele>241.428223</ele>
        <time>2014-09-07T07:38:30Z</time>
      </trkpt>
      <trkpt lat="43.29813" lon="-0.60089">
        <ele>243.35083</ele>
        <time>2014-09-07T07:38:36Z</time>
      </trkpt>
      <trkpt lat="43.29797" lon="-0.6007">
        <ele>245.273438</ele>
        <time>2014-09-07T07:38:48Z</time>
      </trkpt>
      <trkpt lat="43.29779" lon="-0.60051">
        <ele>246.234863</ele>
        <time>2014-09-07T07:39:03Z</time>
      </trkpt>
      <trkpt lat="43.29748" lon="-0.60046">
        <ele>246.715454</ele>
        <time>2014-09-07T07:39:15Z</time>
      </trkpt>
      <trkpt lat="43.29724" lon="-0.60049">
        <ele>245.273438</ele>
        <time>2014-09-07T07:39:22Z</time>
      </trkpt>
      <trkpt lat="43.29717" lon="-0.60064">
        <ele>242.870239</ele>
        <time>2014-09-07T07:39:26Z</time>
      </trkpt>
      <trkpt lat="43.29714" lon="-0.60093">
        <ele>237.582886</ele>
        <time>2014-09-07T07:39:31Z</time>
      </trkpt>
      <trkpt lat="43.29712" lon="-0.60098">
        <ele>235.660278</ele>
        <time>2014-09-07T07:39:32Z</time>
      </trkpt>
      <trkpt lat="43.29698" lon="-0.60113">
        <ele>231.334351</ele>
        <time>2014-09-07T07:39:36Z</time>
      </trkpt>
      <trkpt lat="43.29689" lon="-0.60119">
        <ele>229.892334</ele>
        <time>2014-09-07T07:39:38Z</time>
      </trkpt>
      <trkpt lat="43.29675" lon="-0.60139">
        <ele>225.085938</ele>
        <time>2014-09-07T07:39:43Z</time>
      </trkpt>
      <trkpt lat="43.2967" lon="-0.60146">
        <ele>223.643799</ele>
        <time>2014-09-07T07:39:45Z</time>
      </trkpt>
      <trkpt lat="43.29661" lon="-0.60135">
        <ele>224.124512</ele>
        <time>2014-09-07T07:39:51Z</time>
      </trkpt>
      <trkpt lat="43.29658" lon="-0.60115">
        <ele>226.527832</ele>
        <time>2014-09-07T07:39:58Z</time>
      </trkpt>
      <trkpt lat="43.29656" lon="-0.60104">
        <ele>227.969727</ele>
        <time>2014-09-07T07:40:02Z</time>
      </trkpt>
      <trkpt lat="43.2965" lon="-0.60073">
        <ele>229.411743</ele>
        <time>2014-09-07T07:40:14Z</time>
      </trkpt>
      <trkpt lat="43.29643" lon="-0.60072">
        <ele>229.892334</ele>
        <time>2014-09-07T07:40:18Z</time>
      </trkpt>
      <trkpt lat="43.29597" lon="-0.60108">
        <ele>227.489136</ele>
        <time>2014-09-07T07:40:29Z</time>
      </trkpt>
      <trkpt lat="43.29551" lon="-0.60147">
        <ele>224.124512</ele>
        <time>2014-09-07T07:40:37Z</time>
      </trkpt>
      <trkpt lat="43.29542" lon="-0.60155">
        <ele>225.085938</ele>
        <time>2014-09-07T07:40:39Z</time>
      </trkpt>
      <trkpt lat="43.29509" lon="-0.60154">
        <ele>227.008545</ele>
        <time>2014-09-07T07:40:47Z</time>
      </trkpt>
      <trkpt lat="43.29511" lon="-0.60139">
        <ele>224.605225</ele>
        <time>2014-09-07T07:40:52Z</time>
      </trkpt>
      <trkpt lat="43.29535" lon="-0.60104">
        <ele>221.721191</ele>
        <time>2014-09-07T07:40:59Z</time>
      </trkpt>
      <trkpt lat="43.29558" lon="-0.60067">
        <ele>218.83728</ele>
        <time>2014-09-07T07:41:07Z</time>
      </trkpt>
      <trkpt lat="43.29571" lon="-0.60048">
        <ele>219.798584</ele>
        <time>2014-09-07T07:41:18Z</time>
      </trkpt>
      <trkpt lat="43.29604" lon="-0.59994">
        <ele>223.163208</ele>
        <time>2014-09-07T07:41:32Z</time>
      </trkpt>
      <trkpt lat="43.29605" lon="-0.59991">
        <ele>223.163208</ele>
        <time>2014-09-07T07:41:33Z</time>
      </trkpt>
      <trkpt lat="43.29606" lon="-0.59977">
        <ele>223.163208</ele>
        <time>2014-09-07T07:41:36Z</time>
      </trkpt>
      <trkpt lat="43.29599" lon="-0.59945">
        <ele>220.759888</ele>
        <time>2014-09-07T07:41:41Z</time>
      </trkpt>
      <trkpt lat="43.2959" lon="-0.59908">
        <ele>220.279175</ele>
        <time>2014-09-07T07:41:46Z</time>
      </trkpt>
      <trkpt lat="43.29577" lon="-0.59884">
        <ele>220.279175</ele>
        <time>2014-09-07T07:41:50Z</time>
      </trkpt>
      <trkpt lat="43.29564" lon="-0.5987">
        <ele>220.279175</ele>
        <time>2014-09-07T07:41:53Z</time>
      </trkpt>
      <trkpt lat="43.29539" lon="-0.5986">
        <ele>219.317993</ele>
        <time>2014-09-07T07:41:58Z</time>
      </trkpt>
      <trkpt lat="43.2952" lon="-0.59857">
        <ele>217.395386</ele>
        <time>2014-09-07T07:42:01Z</time>
      </trkpt>
      <trkpt lat="43.2951" lon="-0.59853">
        <ele>216.43396</ele>
        <time>2014-09-07T07:42:03Z</time>
      </trkpt>
      <trkpt lat="43.29504" lon="-0.59846">
        <ele>214.991943</ele>
        <time>2014-09-07T07:42:05Z</time>
      </trkpt>
      <trkpt lat="43.29509" lon="-0.59828">
        <ele>215.953247</ele>
        <time>2014-09-07T07:42:11Z</time>
      </trkpt>
      <trkpt lat="43.29527" lon="-0.59821">
        <ele>219.798584</ele>
        <time>2014-09-07T07:42:24Z</time>
      </trkpt>
      <trkpt lat="43.29541" lon="-0.59822">
        <ele>221.721191</ele>
        <time>2014-09-07T07:42:40Z</time>
      </trkpt>
      <trkpt lat="43.29541" lon="-0.59823">
        <ele>221.721191</ele>
        <time>2014-09-07T07:43:03Z</time>
      </trkpt>
      <trkpt lat="43.2955" lon="-0.59823">
        <ele>223.163208</ele>
        <time>2014-09-07T07:43:20Z</time>
      </trkpt>
      <trkpt lat="43.29563" lon="-0.59821">
        <ele>226.047119</ele>
        <time>2014-09-07T07:43:33Z</time>
      </trkpt>
      <trkpt lat="43.2958" lon="-0.59819">
        <ele>227.969727</ele>
        <time>2014-09-07T07:43:51Z</time>
      </trkpt>
      <trkpt lat="43.29592" lon="-0.59817">
        <ele>231.334351</ele>
        <time>2014-09-07T07:44:03Z</time>
      </trkpt>
      <trkpt lat="43.29596" lon="-0.59816">
        <ele>231.814941</ele>
        <time>2014-09-07T07:44:07Z</time>
      </trkpt>
      <trkpt lat="43.29599" lon="-0.59814">
        <ele>232.776489</ele>
        <time>2014-09-07T07:44:10Z</time>
      </trkpt>
      <trkpt lat="43.29615" lon="-0.59814">
        <ele>237.102295</ele>
        <time>2014-09-07T07:44:28Z</time>
      </trkpt>
      <trkpt lat="43.29628" lon="-0.59811">
        <ele>239.986206</ele>
        <time>2014-09-07T07:44:43Z</time>
      </trkpt>
      <trkpt lat="43.29636" lon="-0.59805">
        <ele>242.870239</ele>
        <time>2014-09-07T07:44:53Z</time>
      </trkpt>
      <trkpt lat="43.29637" lon="-0.598">
        <ele>243.35083</ele>
        <time>2014-09-07T07:45:00Z</time>
      </trkpt>
      <trkpt lat="43.29635" lon="-0.5976">
        <ele>242.870239</ele>
        <time>2014-09-07T07:45:17Z</time>
      </trkpt>
      <trkpt lat="43.29633" lon="-0.59695">
        <ele>242.389648</ele>
        <time>2014-09-07T07:45:36Z</time>
      </trkpt>
      <trkpt lat="43.29651" lon="-0.59641">
        <ele>243.831543</ele>
        <time>2014-09-07T07:45:52Z</time>
      </trkpt>
      <trkpt lat="43.29661" lon="-0.59618">
        <ele>246.715454</ele>
        <time>2014-09-07T07:46:01Z</time>
      </trkpt>
      <trkpt lat="43.29663" lon="-0.59616">
        <ele>246.715454</ele>
        <time>2014-09-07T07:46:02Z</time>
      </trkpt>
      <trkpt lat="43.29672" lon="-0.59575">
        <ele>248.157593</ele>
        <time>2014-09-07T07:46:15Z</time>
      </trkpt>
      <trkpt lat="43.29669" lon="-0.59472">
        <ele>248.638184</ele>
        <time>2014-09-07T07:46:35Z</time>
      </trkpt>
      <trkpt lat="43.29676" lon="-0.594">
        <ele>250.0802</ele>
        <time>2014-09-07T07:46:50Z</time>
      </trkpt>
      <trkpt lat="43.29677" lon="-0.59394">
        <ele>249.118774</ele>
        <time>2014-09-07T07:46:51Z</time>
      </trkpt>
      <trkpt lat="43.2967" lon="-0.59361">
        <ele>248.638184</ele>
        <time>2014-09-07T07:46:56Z</time>
      </trkpt>
      <trkpt lat="43.29606" lon="-0.59268">
        <ele>249.118774</ele>
        <time>2014-09-07T07:47:16Z</time>
      </trkpt>
      <trkpt lat="43.29572" lon="-0.59237">
        <ele>250.0802</ele>
        <time>2014-09-07T07:47:25Z</time>
      </trkpt>
      <trkpt lat="43.29555" lon="-0.5921">
        <ele>249.118774</ele>
        <time>2014-09-07T07:47:30Z</time>
      </trkpt>
      <trkpt lat="43.29514" lon="-0.59169">
        <ele>244.312256</ele>
        <time>2014-09-07T07:47:38Z</time>
      </trkpt>
      <trkpt lat="43.29508" lon="-0.59165">
        <ele>242.870239</ele>
        <time>2014-09-07T07:47:39Z</time>
      </trkpt>
      <trkpt lat="43.2946" lon="-0.5915">
        <ele>240.467041</ele>
        <time>2014-09-07T07:47:46Z</time>
      </trkpt>
      <trkpt lat="43.29421" lon="-0.59153">
        <ele>235.179688</ele>
        <time>2014-09-07T07:47:51Z</time>
      </trkpt>
      <trkpt lat="43.29403" lon="-0.5915">
        <ele>233.737671</ele>
        <time>2014-09-07T07:47:53Z</time>
      </trkpt>
      <trkpt lat="43.29334" lon="-0.59125">
        <ele>230.373047</ele>
        <time>2014-09-07T07:48:01Z</time>
      </trkpt>
      <trkpt lat="43.29266" lon="-0.59103">
        <ele>230.85376</ele>
        <time>2014-09-07T07:48:10Z</time>
      </trkpt>
      <trkpt lat="43.29238" lon="-0.59097">
        <ele>233.737671</ele>
        <time>2014-09-07T07:48:15Z</time>
      </trkpt>
      <trkpt lat="43.29152" lon="-0.59069">
        <ele>230.85376</ele>
        <time>2014-09-07T07:48:29Z</time>
      </trkpt>
      <trkpt lat="43.2906" lon="-0.59023">
        <ele>230.85376</ele>
        <time>2014-09-07T07:48:45Z</time>
      </trkpt>
      <trkpt lat="43.29055" lon="-0.5902">
        <ele>230.85376</ele>
        <time>2014-09-07T07:48:46Z</time>
      </trkpt>
      <trkpt lat="43.29005" lon="-0.58951">
        <ele>231.814941</ele>
        <time>2014-09-07T07:49:00Z</time>
      </trkpt>
      <trkpt lat="43.28926" lon="-0.5887">
        <ele>229.892334</ele>
        <time>2014-09-07T07:49:18Z</time>
      </trkpt>
      <trkpt lat="43.28865" lon="-0.58801">
        <ele>228.931152</ele>
        <time>2014-09-07T07:49:29Z</time>
      </trkpt>
      <trkpt lat="43.28806" lon="-0.58723">
        <ele>228.450439</ele>
        <time>2014-09-07T07:49:42Z</time>
      </trkpt>
      <trkpt lat="43.2879" lon="-0.58657">
        <ele>230.373047</ele>
        <time>2014-09-07T07:49:50Z</time>
      </trkpt>
      <trkpt lat="43.28787" lon="-0.58633">
        <ele>230.373047</ele>
        <time>2014-09-07T07:49:53Z</time>
      </trkpt>
      <trkpt lat="43.28754" lon="-0.58541">
        <ele>230.373047</ele>
        <time>2014-09-07T07:50:07Z</time>
      </trkpt>
      <trkpt lat="43.28745" lon="-0.58514">
        <ele>230.373047</ele>
        <time>2014-09-07T07:50:11Z</time>
      </trkpt>
      <trkpt lat="43.28747" lon="-0.5848">
        <ele>232.295776</ele>
        <time>2014-09-07T07:50:18Z</time>
      </trkpt>
      <trkpt lat="43.28754" lon="-0.58474">
        <ele>233.737671</ele>
        <time>2014-09-07T07:50:21Z</time>
      </trkpt>
      <trkpt lat="43.28774" lon="-0.58437">
        <ele>237.582886</ele>
        <time>2014-09-07T07:50:35Z</time>
      </trkpt>
      <trkpt lat="43.28774" lon="-0.58434">
        <ele>237.582886</ele>
        <time>2014-09-07T07:50:36Z</time>
      </trkpt>
      <trkpt lat="43.28772" lon="-0.58413">
        <ele>240.947632</ele>
        <time>2014-09-07T07:50:45Z</time>
      </trkpt>
      <trkpt lat="43.2877" lon="-0.58399">
        <ele>243.35083</ele>
        <time>2014-09-07T07:50:51Z</time>
      </trkpt>
      <trkpt lat="43.28775" lon="-0.58369">
        <ele>246.715454</ele>
        <time>2014-09-07T07:51:04Z</time>
      </trkpt>
      <trkpt lat="43.2879" lon="-0.58326">
        <ele>250.0802</ele>
        <time>2014-09-07T07:51:24Z</time>
      </trkpt>
      <trkpt lat="43.28801" lon="-0.58297">
        <ele>253.444702</ele>
        <time>2014-09-07T07:51:38Z</time>
      </trkpt>
      <trkpt lat="43.28805" lon="-0.58283">
        <ele>254.886597</ele>
        <time>2014-09-07T07:51:45Z</time>
      </trkpt>
      <trkpt lat="43.28816" lon="-0.58255">
        <ele>257.290039</ele>
        <time>2014-09-07T07:51:59Z</time>
      </trkpt>
      <trkpt lat="43.28824" lon="-0.58232">
        <ele>259.693359</ele>
        <time>2014-09-07T07:52:09Z</time>
      </trkpt>
      <trkpt lat="43.28837" lon="-0.582">
        <ele>263.057861</ele>
        <time>2014-09-07T07:52:24Z</time>
      </trkpt>
      <trkpt lat="43.28858" lon="-0.58163">
        <ele>265.461304</ele>
        <time>2014-09-07T07:52:42Z</time>
      </trkpt>
      <trkpt lat="43.28877" lon="-0.58135">
        <ele>268.345093</ele>
        <time>2014-09-07T07:52:57Z</time>
      </trkpt>
      <trkpt lat="43.289" lon="-0.58102">
        <ele>271.709717</ele>
        <time>2014-09-07T07:53:15Z</time>
      </trkpt>
      <trkpt lat="43.28896" lon="-0.58096">
        <ele>271.709717</ele>
        <time>2014-09-07T07:53:19Z</time>
      </trkpt>
      <trkpt lat="43.28872" lon="-0.58085">
        <ele>274.113037</ele>
        <time>2014-09-07T07:53:32Z</time>
      </trkpt>
      <trkpt lat="43.28848" lon="-0.5807">
        <ele>277.477661</ele>
        <time>2014-09-07T07:53:47Z</time>
      </trkpt>
      <trkpt lat="43.28837" lon="-0.58062">
        <ele>278.919678</ele>
        <time>2014-09-07T07:53:54Z</time>
      </trkpt>
      <trkpt lat="43.28813" lon="-0.58046">
        <ele>281.803589</ele>
        <time>2014-09-07T07:54:09Z</time>
      </trkpt>
      <trkpt lat="43.28803" lon="-0.5804">
        <ele>283.726196</ele>
        <time>2014-09-07T07:54:15Z</time>
      </trkpt>
      <trkpt lat="43.2877" lon="-0.5802">
        <ele>287.09082</ele>
        <time>2014-09-07T07:54:35Z</time>
      </trkpt>
      <trkpt lat="43.28729" lon="-0.57997">
        <ele>288.052246</ele>
        <time>2014-09-07T07:54:52Z</time>
      </trkpt>
      <trkpt lat="43.28658" lon="-0.57934">
        <ele>289.01355</ele>
        <time>2014-09-07T07:55:09Z</time>
      </trkpt>
      <trkpt lat="43.28575" lon="-0.57868">
        <ele>291.416748</ele>
        <time>2014-09-07T07:55:28Z</time>
      </trkpt>
      <trkpt lat="43.28493" lon="-0.57818">
        <ele>291.897461</ele>
        <time>2014-09-07T07:55:46Z</time>
      </trkpt>
      <trkpt lat="43.28428" lon="-0.57793">
        <ele>294.300781</ele>
        <time>2014-09-07T07:56:02Z</time>
      </trkpt>
      <trkpt lat="43.28397" lon="-0.57781">
        <ele>295.261963</ele>
        <time>2014-09-07T07:56:10Z</time>
      </trkpt>
      <trkpt lat="43.28392" lon="-0.57752">
        <ele>295.742676</ele>
        <time>2014-09-07T07:56:17Z</time>
      </trkpt>
      <trkpt lat="43.28397" lon="-0.57686">
        <ele>293.339355</ele>
        <time>2014-09-07T07:56:29Z</time>
      </trkpt>
      <trkpt lat="43.284" lon="-0.57658">
        <ele>289.974854</ele>
        <time>2014-09-07T07:56:34Z</time>
      </trkpt>
      <trkpt lat="43.28401" lon="-0.57648">
        <ele>288.052246</ele>
        <time>2014-09-07T07:56:37Z</time>
      </trkpt>
      <trkpt lat="43.28402" lon="-0.57644">
        <ele>286.610229</ele>
        <time>2014-09-07T07:56:45Z</time>
      </trkpt>
      <trkpt lat="43.28401" lon="-0.57626">
        <ele>283.245605</ele>
        <time>2014-09-07T07:56:56Z</time>
      </trkpt>
      <trkpt lat="43.284" lon="-0.57617">
        <ele>280.361694</ele>
        <time>2014-09-07T07:57:04Z</time>
      </trkpt>
      <trkpt lat="43.284" lon="-0.57612">
        <ele>278.438965</ele>
        <time>2014-09-07T07:57:08Z</time>
      </trkpt>
      <trkpt lat="43.28399" lon="-0.57603">
        <ele>274.59375</ele>
        <time>2014-09-07T07:57:15Z</time>
      </trkpt>
      <trkpt lat="43.28398" lon="-0.57596">
        <ele>272.671143</ele>
        <time>2014-09-07T07:57:19Z</time>
      </trkpt>
      <trkpt lat="43.28396" lon="-0.57587">
        <ele>269.787109</ele>
        <time>2014-09-07T07:57:25Z</time>
      </trkpt>
      <trkpt lat="43.28378" lon="-0.57577">
        <ele>266.422485</ele>
        <time>2014-09-07T07:57:37Z</time>
      </trkpt>
      <trkpt lat="43.2837" lon="-0.57575">
        <ele>263.538574</ele>
        <time>2014-09-07T07:57:40Z</time>
      </trkpt>
      <trkpt lat="43.28366" lon="-0.57575">
        <ele>263.538574</ele>
        <time>2014-09-07T07:57:41Z</time>
      </trkpt>
      <trkpt lat="43.28355" lon="-0.57577">
        <ele>262.096558</ele>
        <time>2014-09-07T07:57:44Z</time>
      </trkpt>
      <trkpt lat="43.28293" lon="-0.57597">
        <ele>261.615967</ele>
        <time>2014-09-07T07:57:58Z</time>
      </trkpt>
      <trkpt lat="43.28232" lon="-0.57609">
        <ele>262.577148</ele>
        <time>2014-09-07T07:58:15Z</time>
      </trkpt>
      <trkpt lat="43.28194" lon="-0.57577">
        <ele>262.096558</ele>
        <time>2014-09-07T07:58:29Z</time>
      </trkpt>
      <trkpt lat="43.28163" lon="-0.57542">
        <ele>262.096558</ele>
        <time>2014-09-07T07:58:42Z</time>
      </trkpt>
      <trkpt lat="43.28147" lon="-0.5753">
        <ele>259.693359</ele>
        <time>2014-09-07T07:58:46Z</time>
      </trkpt>
      <trkpt lat="43.28101" lon="-0.575">
        <ele>260.17395</ele>
        <time>2014-09-07T07:58:59Z</time>
      </trkpt>
      <trkpt lat="43.28066" lon="-0.57485">
        <ele>263.057861</ele>
        <time>2014-09-07T07:59:14Z</time>
      </trkpt>
      <trkpt lat="43.28048" lon="-0.5746">
        <ele>262.577148</ele>
        <time>2014-09-07T07:59:24Z</time>
      </trkpt>
      <trkpt lat="43.28037" lon="-0.57435">
        <ele>258.251343</ele>
        <time>2014-09-07T07:59:29Z</time>
      </trkpt>
      <trkpt lat="43.28042" lon="-0.57412">
        <ele>254.886597</ele>
        <time>2014-09-07T07:59:33Z</time>
      </trkpt>
      <trkpt lat="43.28047" lon="-0.57402">
        <ele>253.925415</ele>
        <time>2014-09-07T07:59:35Z</time>
      </trkpt>
      <trkpt lat="43.28051" lon="-0.57392">
        <ele>252.483398</ele>
        <time>2014-09-07T07:59:37Z</time>
      </trkpt>
      <trkpt lat="43.28053" lon="-0.57387">
        <ele>251.522095</ele>
        <time>2014-09-07T07:59:38Z</time>
      </trkpt>
      <trkpt lat="43.28047" lon="-0.57365">
        <ele>248.638184</ele>
        <time>2014-09-07T07:59:42Z</time>
      </trkpt>
      <trkpt lat="43.28035" lon="-0.57337">
        <ele>245.273438</ele>
        <time>2014-09-07T07:59:46Z</time>
      </trkpt>
      <trkpt lat="43.28023" lon="-0.57311">
        <ele>241.908936</ele>
        <time>2014-09-07T07:59:50Z</time>
      </trkpt>
      <trkpt lat="43.28017" lon="-0.57298">
        <ele>239.024902</ele>
        <time>2014-09-07T07:59:52Z</time>
      </trkpt>
      <trkpt lat="43.28011" lon="-0.57284">
        <ele>238.063599</ele>
        <time>2014-09-07T07:59:54Z</time>
      </trkpt>
      <trkpt lat="43.28002" lon="-0.57262">
        <ele>232.776489</ele>
        <time>2014-09-07T07:59:57Z</time>
      </trkpt>
      <trkpt lat="43.27996" lon="-0.57248">
        <ele>229.411743</ele>
        <time>2014-09-07T07:59:59Z</time>
      </trkpt>
      <trkpt lat="43.27993" lon="-0.57242">
        <ele>228.450439</ele>
        <time>2014-09-07T08:00:00Z</time>
      </trkpt>
      <trkpt lat="43.27991" lon="-0.5721">
        <ele>224.605225</ele>
        <time>2014-09-07T08:00:04Z</time>
      </trkpt>
      <trkpt lat="43.27998" lon="-0.57168">
        <ele>225.085938</ele>
        <time>2014-09-07T08:00:09Z</time>
      </trkpt>
      <trkpt lat="43.28009" lon="-0.57103">
        <ele>224.605225</ele>
        <time>2014-09-07T08:00:19Z</time>
      </trkpt>
      <trkpt lat="43.28017" lon="-0.57084">
        <ele>222.682495</ele>
        <time>2014-09-07T08:00:22Z</time>
      </trkpt>
      <trkpt lat="43.28021" lon="-0.57079">
        <ele>222.201782</ele>
        <time>2014-09-07T08:00:23Z</time>
      </trkpt>
      <trkpt lat="43.28039" lon="-0.57054">
        <ele>217.875977</ele>
        <time>2014-09-07T08:00:28Z</time>
      </trkpt>
      <trkpt lat="43.28046" lon="-0.57044">
        <ele>216.43396</ele>
        <time>2014-09-07T08:00:30Z</time>
      </trkpt>
      <trkpt lat="43.28067" lon="-0.57015">
        <ele>213.550049</ele>
        <time>2014-09-07T08:00:35Z</time>
      </trkpt>
      <trkpt lat="43.28074" lon="-0.57005">
        <ele>212.588623</ele>
        <time>2014-09-07T08:00:37Z</time>
      </trkpt>
      <trkpt lat="43.28089" lon="-0.56983">
        <ele>208.743408</ele>
        <time>2014-09-07T08:00:43Z</time>
      </trkpt>
      <trkpt lat="43.28085" lon="-0.56962">
        <ele>207.301392</ele>
        <time>2014-09-07T08:00:48Z</time>
      </trkpt>
      <trkpt lat="43.28069" lon="-0.56939">
        <ele>204.41748</ele>
        <time>2014-09-07T08:00:52Z</time>
      </trkpt>
      <trkpt lat="43.2805" lon="-0.56911">
        <ele>202.494873</ele>
        <time>2014-09-07T08:00:57Z</time>
      </trkpt>
      <trkpt lat="43.28024" lon="-0.56876">
        <ele>199.130127</ele>
        <time>2014-09-07T08:01:04Z</time>
      </trkpt>
      <trkpt lat="43.28007" lon="-0.56846">
        <ele>196.246338</ele>
        <time>2014-09-07T08:01:10Z</time>
      </trkpt>
      <trkpt lat="43.27991" lon="-0.5682">
        <ele>194.32373</ele>
        <time>2014-09-07T08:01:20Z</time>
      </trkpt>
      <trkpt lat="43.27986" lon="-0.56811">
        <ele>192.401123</ele>
        <time>2014-09-07T08:01:32Z</time>
      </trkpt>
      <trkpt lat="43.27985" lon="-0.5681">
        <ele>192.401123</ele>
        <time>2014-09-07T08:01:33Z</time>
      </trkpt>
      <trkpt lat="43.27981" lon="-0.56805">
        <ele>190.478394</ele>
        <time>2014-09-07T08:01:36Z</time>
      </trkpt>
      <trkpt lat="43.27969" lon="-0.56793">
        <ele>187.59436</ele>
        <time>2014-09-07T08:01:45Z</time>
      </trkpt>
      <trkpt lat="43.27962" lon="-0.56787">
        <ele>185.671753</ele>
        <time>2014-09-07T08:01:49Z</time>
      </trkpt>
      <trkpt lat="43.2795" lon="-0.5678">
        <ele>184.710571</ele>
        <time>2014-09-07T08:01:55Z</time>
      </trkpt>
      <trkpt lat="43.27923" lon="-0.5676">
        <ele>182.787842</ele>
        <time>2014-09-07T08:02:01Z</time>
      </trkpt>
      <trkpt lat="43.27908" lon="-0.56748">
        <ele>180.865234</ele>
        <time>2014-09-07T08:02:07Z</time>
      </trkpt>
      <trkpt lat="43.27907" lon="-0.56736">
        <ele>180.384521</ele>
        <time>2014-09-07T08:02:12Z</time>
      </trkpt>
      <trkpt lat="43.27909" lon="-0.56734">
        <ele>178.942627</ele>
        <time>2014-09-07T08:02:24Z</time>
      </trkpt>
      <trkpt lat="43.27908" lon="-0.56736">
        <ele>179.423218</ele>
        <time>2014-09-07T08:02:26Z</time>
      </trkpt>
      <trkpt lat="43.27904" lon="-0.56746">
        <ele>179.903809</ele>
        <time>2014-09-07T08:02:42Z</time>
      </trkpt>
      <trkpt lat="43.27897" lon="-0.56746">
        <ele>179.903809</ele>
        <time>2014-09-07T08:02:58Z</time>
      </trkpt>
      <trkpt lat="43.27898" lon="-0.56746">
        <ele>179.903809</ele>
        <time>2014-09-07T08:03:31Z</time>
      </trkpt>
      <trkpt lat="43.27895" lon="-0.56747">
        <ele>180.384521</ele>
        <time>2014-09-07T08:03:51Z</time>
      </trkpt>
      <trkpt lat="43.27897" lon="-0.5675">
        <ele>180.865234</ele>
        <time>2014-09-07T08:04:08Z</time>
      </trkpt>
      <trkpt lat="43.27901" lon="-0.5675">
        <ele>179.903809</ele>
        <time>2014-09-07T08:04:23Z</time>
      </trkpt>
      <trkpt lat="43.27903" lon="-0.56745">
        <ele>179.903809</ele>
        <time>2014-09-07T08:04:35Z</time>
      </trkpt>
      <trkpt lat="43.27907" lon="-0.56748">
        <ele>180.865234</ele>
        <time>2014-09-07T08:04:49Z</time>
      </trkpt>
      <trkpt lat="43.2791" lon="-0.5675">
        <ele>180.865234</ele>
        <time>2014-09-07T08:05:28Z</time>
      </trkpt>
      <trkpt lat="43.27902" lon="-0.56747">
        <ele>180.865234</ele>
        <time>2014-09-07T08:05:47Z</time>
      </trkpt>
      <trkpt lat="43.27896" lon="-0.56747">
        <ele>180.865234</ele>
        <time>2014-09-07T08:05:59Z</time>
      </trkpt>
      <trkpt lat="43.27895" lon="-0.56746">
        <ele>181.345825</ele>
        <time>2014-09-07T08:06:16Z</time>
      </trkpt>
      <trkpt lat="43.27898" lon="-0.56748">
        <ele>181.826416</ele>
        <time>2014-09-07T08:06:29Z</time>
      </trkpt>
      <trkpt lat="43.27905" lon="-0.56744">
        <ele>180.865234</ele>
        <time>2014-09-07T08:06:41Z</time>
      </trkpt>
      <trkpt lat="43.27907" lon="-0.56742">
        <ele>181.345825</ele>
        <time>2014-09-07T08:06:43Z</time>
      </trkpt>
      <trkpt lat="43.27913" lon="-0.56727">
        <ele>180.865234</ele>
        <time>2014-09-07T08:06:59Z</time>
      </trkpt>
      <trkpt lat="43.2792" lon="-0.56719">
        <ele>180.865234</ele>
        <time>2014-09-07T08:07:13Z</time>
      </trkpt>
      <trkpt lat="43.27955" lon="-0.56701">
        <ele>180.865234</ele>
        <time>2014-09-07T08:07:26Z</time>
      </trkpt>
      <trkpt lat="43.27994" lon="-0.56655">
        <ele>180.865234</ele>
        <time>2014-09-07T08:07:42Z</time>
      </trkpt>
      <trkpt lat="43.2805" lon="-0.56618">
        <ele>183.268433</ele>
        <time>2014-09-07T08:08:01Z</time>
      </trkpt>
      <trkpt lat="43.28104" lon="-0.56578">
        <ele>181.826416</ele>
        <time>2014-09-07T08:08:14Z</time>
      </trkpt>
      <trkpt lat="43.28169" lon="-0.5656">
        <ele>178.461914</ele>
        <time>2014-09-07T08:08:25Z</time>
      </trkpt>
      <trkpt lat="43.28233" lon="-0.56548">
        <ele>175.577881</ele>
        <time>2014-09-07T08:08:34Z</time>
      </trkpt>
      <trkpt lat="43.2824" lon="-0.56546">
        <ele>175.577881</ele>
        <time>2014-09-07T08:08:35Z</time>
      </trkpt>
      <trkpt lat="43.2827" lon="-0.56533">
        <ele>172.213257</ele>
        <time>2014-09-07T08:08:40Z</time>
      </trkpt>
      <trkpt lat="43.2829" lon="-0.56509">
        <ele>171.252075</ele>
        <time>2014-09-07T08:08:51Z</time>
      </trkpt>
      <trkpt lat="43.28318" lon="-0.56475">
        <ele>168.368042</ele>
        <time>2014-09-07T08:09:00Z</time>
      </trkpt>
      <trkpt lat="43.28322" lon="-0.56471">
        <ele>167.887329</ele>
        <time>2014-09-07T08:09:13Z</time>
      </trkpt>
      <trkpt lat="43.28325" lon="-0.56467">
        <ele>167.887329</ele>
        <time>2014-09-07T08:09:17Z</time>
      </trkpt>
      <trkpt lat="43.28338" lon="-0.56463">
        <ele>168.848755</ele>
        <time>2014-09-07T08:09:22Z</time>
      </trkpt>
      <trkpt lat="43.28425" lon="-0.56481">
        <ele>167.887329</ele>
        <time>2014-09-07T08:09:39Z</time>
      </trkpt>
      <trkpt lat="43.28492" lon="-0.56494">
        <ele>167.887329</ele>
        <time>2014-09-07T08:09:51Z</time>
      </trkpt>
      <trkpt lat="43.28508" lon="-0.56471">
        <ele>167.406738</ele>
        <time>2014-09-07T08:09:57Z</time>
      </trkpt>
      <trkpt lat="43.28532" lon="-0.56342">
        <ele>162.600098</ele>
        <time>2014-09-07T08:10:12Z</time>
      </trkpt>
      <trkpt lat="43.28539" lon="-0.56271">
        <ele>162.600098</ele>
        <time>2014-09-07T08:10:21Z</time>
      </trkpt>
      <trkpt lat="43.28541" lon="-0.56248">
        <ele>162.600098</ele>
        <time>2014-09-07T08:10:24Z</time>
      </trkpt>
      <trkpt lat="43.28533" lon="-0.56138">
        <ele>163.561523</ele>
        <time>2014-09-07T08:10:39Z</time>
      </trkpt>
      <trkpt lat="43.28524" lon="-0.56112">
        <ele>165.003418</ele>
        <time>2014-09-07T08:10:48Z</time>
      </trkpt>
      <trkpt lat="43.28517" lon="-0.56107">
        <ele>166.445313</ele>
        <time>2014-09-07T08:11:02Z</time>
      </trkpt>
      <trkpt lat="43.28516" lon="-0.56102">
        <ele>166.926025</ele>
        <time>2014-09-07T08:11:05Z</time>
      </trkpt>
      <trkpt lat="43.28517" lon="-0.56097">
        <ele>167.887329</ele>
        <time>2014-09-07T08:11:09Z</time>
      </trkpt>
      <trkpt lat="43.28539" lon="-0.5609">
        <ele>170.771362</ele>
        <time>2014-09-07T08:11:22Z</time>
      </trkpt>
      <trkpt lat="43.28567" lon="-0.56077">
        <ele>174.135864</ele>
        <time>2014-09-07T08:11:38Z</time>
      </trkpt>
      <trkpt lat="43.28585" lon="-0.56069">
        <ele>177.50061</ele>
        <time>2014-09-07T08:11:48Z</time>
      </trkpt>
      <trkpt lat="43.28592" lon="-0.56066">
        <ele>178.461914</ele>
        <time>2014-09-07T08:11:52Z</time>
      </trkpt>
      <trkpt lat="43.28614" lon="-0.56052">
        <ele>181.345825</ele>
        <time>2014-09-07T08:12:07Z</time>
      </trkpt>
      <trkpt lat="43.28636" lon="-0.56043">
        <ele>184.710571</ele>
        <time>2014-09-07T08:12:22Z</time>
      </trkpt>
      <trkpt lat="43.2865" lon="-0.56037">
        <ele>189.036377</ele>
        <time>2014-09-07T08:12:33Z</time>
      </trkpt>
      <trkpt lat="43.28651" lon="-0.56036">
        <ele>189.036377</ele>
        <time>2014-09-07T08:12:34Z</time>
      </trkpt>
      <trkpt lat="43.2867" lon="-0.5603">
        <ele>191.920288</ele>
        <time>2014-09-07T08:12:48Z</time>
      </trkpt>
      <trkpt lat="43.28696" lon="-0.56024">
        <ele>194.804321</ele>
        <time>2014-09-07T08:13:06Z</time>
      </trkpt>
      <trkpt lat="43.28721" lon="-0.5601">
        <ele>196.726929</ele>
        <time>2014-09-07T08:13:23Z</time>
      </trkpt>
      <trkpt lat="43.28741" lon="-0.55989">
        <ele>200.091675</ele>
        <time>2014-09-07T08:13:39Z</time>
      </trkpt>
      <trkpt lat="43.28742" lon="-0.55988">
        <ele>200.572266</ele>
        <time>2014-09-07T08:13:40Z</time>
      </trkpt>
      <trkpt lat="43.28749" lon="-0.55981">
        <ele>201.533569</ele>
        <time>2014-09-07T08:13:46Z</time>
      </trkpt>
      <trkpt lat="43.28755" lon="-0.55973">
        <ele>203.456177</ele>
        <time>2014-09-07T08:13:51Z</time>
      </trkpt>
      <trkpt lat="43.2877" lon="-0.55952">
        <ele>206.820679</ele>
        <time>2014-09-07T08:14:04Z</time>
      </trkpt>
      <trkpt lat="43.28789" lon="-0.55944">
        <ele>208.262817</ele>
        <time>2014-09-07T08:14:18Z</time>
      </trkpt>
      <trkpt lat="43.28817" lon="-0.55963">
        <ele>211.627441</ele>
        <time>2014-09-07T08:14:37Z</time>
      </trkpt>
      <trkpt lat="43.28833" lon="-0.55962">
        <ele>213.550049</ele>
        <time>2014-09-07T08:14:49Z</time>
      </trkpt>
      <trkpt lat="43.28834" lon="-0.55957">
        <ele>213.550049</ele>
        <time>2014-09-07T08:14:52Z</time>
      </trkpt>
      <trkpt lat="43.28835" lon="-0.5595">
        <ele>214.991943</ele>
        <time>2014-09-07T08:14:56Z</time>
      </trkpt>
      <trkpt lat="43.28835" lon="-0.55945">
        <ele>215.953247</ele>
        <time>2014-09-07T08:14:58Z</time>
      </trkpt>
      <trkpt lat="43.28833" lon="-0.55923">
        <ele>218.356567</ele>
        <time>2014-09-07T08:15:12Z</time>
      </trkpt>
      <trkpt lat="43.28828" lon="-0.55898">
        <ele>221.721191</ele>
        <time>2014-09-07T08:15:26Z</time>
      </trkpt>
      <trkpt lat="43.28825" lon="-0.55874">
        <ele>224.124512</ele>
        <time>2014-09-07T08:15:40Z</time>
      </trkpt>
      <trkpt lat="43.28826" lon="-0.55858">
        <ele>226.527832</ele>
        <time>2014-09-07T08:15:48Z</time>
      </trkpt>
      <trkpt lat="43.28841" lon="-0.55831">
        <ele>229.411743</ele>
        <time>2014-09-07T08:16:04Z</time>
      </trkpt>
      <trkpt lat="43.28863" lon="-0.55799">
        <ele>228.931152</ele>
        <time>2014-09-07T08:16:17Z</time>
      </trkpt>
      <trkpt lat="43.28878" lon="-0.55764">
        <ele>231.334351</ele>
        <time>2014-09-07T08:16:29Z</time>
      </trkpt>
      <trkpt lat="43.28882" lon="-0.55755">
        <ele>232.295776</ele>
        <time>2014-09-07T08:16:32Z</time>
      </trkpt>
      <trkpt lat="43.28884" lon="-0.5575">
        <ele>232.295776</ele>
        <time>2014-09-07T08:16:34Z</time>
      </trkpt>
      <trkpt lat="43.28891" lon="-0.5574">
        <ele>233.25708</ele>
        <time>2014-09-07T08:16:39Z</time>
      </trkpt>
      <trkpt lat="43.28895" lon="-0.55735">
        <ele>233.737671</ele>
        <time>2014-09-07T08:16:43Z</time>
      </trkpt>
      <trkpt lat="43.28902" lon="-0.55731">
        <ele>236.140991</ele>
        <time>2014-09-07T08:16:48Z</time>
      </trkpt>
      <trkpt lat="43.28928" lon="-0.55725">
        <ele>236.140991</ele>
        <time>2014-09-07T08:17:00Z</time>
      </trkpt>
      <trkpt lat="43.2894" lon="-0.55723">
        <ele>235.179688</ele>
        <time>2014-09-07T08:17:03Z</time>
      </trkpt>
      <trkpt lat="43.28969" lon="-0.5571">
        <ele>231.334351</ele>
        <time>2014-09-07T08:17:08Z</time>
      </trkpt>
      <trkpt lat="43.28976" lon="-0.55708">
        <ele>229.411743</ele>
        <time>2014-09-07T08:17:09Z</time>
      </trkpt>
      <trkpt lat="43.28995" lon="-0.55708">
        <ele>226.047119</ele>
        <time>2014-09-07T08:17:12Z</time>
      </trkpt>
      <trkpt lat="43.29007" lon="-0.55705">
        <ele>224.605225</ele>
        <time>2014-09-07T08:17:14Z</time>
      </trkpt>
      <trkpt lat="43.29016" lon="-0.55679">
        <ele>222.201782</ele>
        <time>2014-09-07T08:17:17Z</time>
      </trkpt>
      <trkpt lat="43.29021" lon="-0.5563">
        <ele>218.356567</ele>
        <time>2014-09-07T08:17:21Z</time>
      </trkpt>
      <trkpt lat="43.29022" lon="-0.556">
        <ele>217.395386</ele>
        <time>2014-09-07T08:17:23Z</time>
      </trkpt>
      <trkpt lat="43.29016" lon="-0.55552">
        <ele>211.627441</ele>
        <time>2014-09-07T08:17:27Z</time>
      </trkpt>
      <trkpt lat="43.29012" lon="-0.55536">
        <ele>211.146729</ele>
        <time>2014-09-07T08:17:29Z</time>
      </trkpt>
      <trkpt lat="43.29012" lon="-0.55518">
        <ele>209.224121</ele>
        <time>2014-09-07T08:17:32Z</time>
      </trkpt>
      <trkpt lat="43.29012" lon="-0.55509">
        <ele>207.782104</ele>
        <time>2014-09-07T08:17:34Z</time>
      </trkpt>
      <trkpt lat="43.29005" lon="-0.55502">
        <ele>207.301392</ele>
        <time>2014-09-07T08:17:36Z</time>
      </trkpt>
      <trkpt lat="43.28932" lon="-0.55443">
        <ele>205.859497</ele>
        <time>2014-09-07T08:17:50Z</time>
      </trkpt>
      <trkpt lat="43.28857" lon="-0.55389">
        <ele>204.41748</ele>
        <time>2014-09-07T08:18:03Z</time>
      </trkpt>
      <trkpt lat="43.2876" lon="-0.55366">
        <ele>201.052856</ele>
        <time>2014-09-07T08:18:18Z</time>
      </trkpt>
      <trkpt lat="43.28702" lon="-0.55355">
        <ele>198.168945</ele>
        <time>2014-09-07T08:18:28Z</time>
      </trkpt>
      <trkpt lat="43.28701" lon="-0.55342">
        <ele>199.130127</ele>
        <time>2014-09-07T08:18:32Z</time>
      </trkpt>
      <trkpt lat="43.28737" lon="-0.55273">
        <ele>195.765625</ele>
        <time>2014-09-07T08:18:44Z</time>
      </trkpt>
      <trkpt lat="43.28766" lon="-0.55217">
        <ele>191.439575</ele>
        <time>2014-09-07T08:18:53Z</time>
      </trkpt>
      <trkpt lat="43.28808" lon="-0.55133">
        <ele>189.997681</ele>
        <time>2014-09-07T08:19:09Z</time>
      </trkpt>
      <trkpt lat="43.2882" lon="-0.55102">
        <ele>189.036377</ele>
        <time>2014-09-07T08:19:16Z</time>
      </trkpt>
      <trkpt lat="43.28841" lon="-0.55064">
        <ele>185.671753</ele>
        <time>2014-09-07T08:19:24Z</time>
      </trkpt>
      <trkpt lat="43.28881" lon="-0.55047">
        <ele>184.229858</ele>
        <time>2014-09-07T08:19:35Z</time>
      </trkpt>
      <trkpt lat="43.28936" lon="-0.55026">
        <ele>181.826416</ele>
        <time>2014-09-07T08:19:52Z</time>
      </trkpt>
      <trkpt lat="43.2894" lon="-0.55004">
        <ele>182.307129</ele>
        <time>2014-09-07T08:19:58Z</time>
      </trkpt>
      <trkpt lat="43.28909" lon="-0.54972">
        <ele>184.229858</ele>
        <time>2014-09-07T08:20:11Z</time>
      </trkpt>
      <trkpt lat="43.28896" lon="-0.54953">
        <ele>187.59436</ele>
        <time>2014-09-07T08:20:21Z</time>
      </trkpt>
      <trkpt lat="43.28891" lon="-0.54943">
        <ele>189.997681</ele>
        <time>2014-09-07T08:20:34Z</time>
      </trkpt>
      <trkpt lat="43.28895" lon="-0.54935">
        <ele>191.920288</ele>
        <time>2014-09-07T08:20:46Z</time>
      </trkpt>
      <trkpt lat="43.28915" lon="-0.54932">
        <ele>195.765625</ele>
        <time>2014-09-07T08:21:03Z</time>
      </trkpt>
      <trkpt lat="43.2893" lon="-0.54912">
        <ele>198.649536</ele>
        <time>2014-09-07T08:21:20Z</time>
      </trkpt>
      <trkpt lat="43.28933" lon="-0.54885">
        <ele>201.052856</ele>
        <time>2014-09-07T08:21:36Z</time>
      </trkpt>
      <trkpt lat="43.28934" lon="-0.54869">
        <ele>204.41748</ele>
        <time>2014-09-07T08:21:50Z</time>
      </trkpt>
      <trkpt lat="43.28939" lon="-0.54851">
        <ele>207.782104</ele>
        <time>2014-09-07T08:22:04Z</time>
      </trkpt>
      <trkpt lat="43.28941" lon="-0.5484">
        <ele>208.743408</ele>
        <time>2014-09-07T08:22:17Z</time>
      </trkpt>
      <trkpt lat="43.28944" lon="-0.54828">
        <ele>210.185425</ele>
        <time>2014-09-07T08:22:31Z</time>
      </trkpt>
      <trkpt lat="43.28945" lon="-0.54825">
        <ele>210.185425</ele>
        <time>2014-09-07T08:22:34Z</time>
      </trkpt>
      <trkpt lat="43.28955" lon="-0.54818">
        <ele>210.666016</ele>
        <time>2014-09-07T08:22:47Z</time>
      </trkpt>
      <trkpt lat="43.28961" lon="-0.54816">
        <ele>211.146729</ele>
        <time>2014-09-07T08:22:52Z</time>
      </trkpt>
      <trkpt lat="43.2898" lon="-0.54808">
        <ele>210.185425</ele>
        <time>2014-09-07T08:23:06Z</time>
      </trkpt>
      <trkpt lat="43.28998" lon="-0.54794">
        <ele>212.108032</ele>
        <time>2014-09-07T08:23:23Z</time>
      </trkpt>
      <trkpt lat="43.29006" lon="-0.54791">
        <ele>215.472656</ele>
        <time>2014-09-07T08:23:32Z</time>
      </trkpt>
      <trkpt lat="43.29016" lon="-0.54779">
        <ele>218.356567</ele>
        <time>2014-09-07T08:23:47Z</time>
      </trkpt>
      <trkpt lat="43.29029" lon="-0.54775">
        <ele>221.721191</ele>
        <time>2014-09-07T08:24:03Z</time>
      </trkpt>
      <trkpt lat="43.29037" lon="-0.54772">
        <ele>222.201782</ele>
        <time>2014-09-07T08:24:13Z</time>
      </trkpt>
      <trkpt lat="43.29049" lon="-0.54769">
        <ele>224.124512</ele>
        <time>2014-09-07T08:24:23Z</time>
      </trkpt>
      <trkpt lat="43.29049" lon="-0.54761">
        <ele>225.566528</ele>
        <time>2014-09-07T08:24:28Z</time>
      </trkpt>
      <trkpt lat="43.29035" lon="-0.54745">
        <ele>226.527832</ele>
        <time>2014-09-07T08:24:42Z</time>
      </trkpt>
      <trkpt lat="43.29027" lon="-0.54735">
        <ele>229.892334</ele>
        <time>2014-09-07T08:24:52Z</time>
      </trkpt>
      <trkpt lat="43.29023" lon="-0.5473">
        <ele>231.334351</ele>
        <time>2014-09-07T08:24:58Z</time>
      </trkpt>
      <trkpt lat="43.29016" lon="-0.54711">
        <ele>234.699097</ele>
        <time>2014-09-07T08:25:15Z</time>
      </trkpt>
      <trkpt lat="43.29011" lon="-0.547">
        <ele>235.660278</ele>
        <time>2014-09-07T08:25:23Z</time>
      </trkpt>
      <trkpt lat="43.29012" lon="-0.54693">
        <ele>236.140991</ele>
        <time>2014-09-07T08:25:28Z</time>
      </trkpt>
      <trkpt lat="43.2901" lon="-0.54686">
        <ele>234.699097</ele>
        <time>2014-09-07T08:25:35Z</time>
      </trkpt>
      <trkpt lat="43.29009" lon="-0.54685">
        <ele>235.179688</ele>
        <time>2014-09-07T08:25:36Z</time>
      </trkpt>
      <trkpt lat="43.28997" lon="-0.54678">
        <ele>237.102295</ele>
        <time>2014-09-07T08:25:46Z</time>
      </trkpt>
      <trkpt lat="43.28975" lon="-0.54673">
        <ele>239.024902</ele>
        <time>2014-09-07T08:26:04Z</time>
      </trkpt>
      <trkpt lat="43.28964" lon="-0.54676">
        <ele>239.986206</ele>
        <time>2014-09-07T08:26:16Z</time>
      </trkpt>
      <trkpt lat="43.28947" lon="-0.54683">
        <ele>242.870239</ele>
        <time>2014-09-07T08:26:31Z</time>
      </trkpt>
      <trkpt lat="43.28931" lon="-0.54691">
        <ele>244.792847</ele>
        <time>2014-09-07T08:26:45Z</time>
      </trkpt>
      <trkpt lat="43.28914" lon="-0.54698">
        <ele>247.196045</ele>
        <time>2014-09-07T08:27:01Z</time>
      </trkpt>
      <trkpt lat="43.28897" lon="-0.54705">
        <ele>248.638184</ele>
        <time>2014-09-07T08:27:13Z</time>
      </trkpt>
      <trkpt lat="43.28875" lon="-0.54716">
        <ele>250.0802</ele>
        <time>2014-09-07T08:27:28Z</time>
      </trkpt>
      <trkpt lat="43.2887" lon="-0.54715">
        <ele>252.002808</ele>
        <time>2014-09-07T08:27:31Z</time>
      </trkpt>
      <trkpt lat="43.28854" lon="-0.54704">
        <ele>253.444702</ele>
        <time>2014-09-07T08:27:43Z</time>
      </trkpt>
      <trkpt lat="43.28844" lon="-0.54688">
        <ele>256.328735</ele>
        <time>2014-09-07T08:27:56Z</time>
      </trkpt>
      <trkpt lat="43.28843" lon="-0.54686">
        <ele>255.848022</ele>
        <time>2014-09-07T08:27:58Z</time>
      </trkpt>
      <trkpt lat="43.2884" lon="-0.54677">
        <ele>256.809326</ele>
        <time>2014-09-07T08:28:03Z</time>
      </trkpt>
      <trkpt lat="43.28817" lon="-0.54655">
        <ele>257.770752</ele>
        <time>2014-09-07T08:28:16Z</time>
      </trkpt>
      <trkpt lat="43.28788" lon="-0.54633">
        <ele>257.770752</ele>
        <time>2014-09-07T08:28:26Z</time>
      </trkpt>
      <trkpt lat="43.28755" lon="-0.54603">
        <ele>257.290039</ele>
        <time>2014-09-07T08:28:38Z</time>
      </trkpt>
      <trkpt lat="43.28734" lon="-0.54585">
        <ele>260.654541</ele>
        <time>2014-09-07T08:28:49Z</time>
      </trkpt>
      <trkpt lat="43.28709" lon="-0.54568">
        <ele>263.057861</ele>
        <time>2014-09-07T08:29:06Z</time>
      </trkpt>
      <trkpt lat="43.28687" lon="-0.54547">
        <ele>264.980591</ele>
        <time>2014-09-07T08:29:21Z</time>
      </trkpt>
      <trkpt lat="43.28654" lon="-0.54526">
        <ele>267.864502</ele>
        <time>2014-09-07T08:29:37Z</time>
      </trkpt>
      <trkpt lat="43.28632" lon="-0.54507">
        <ele>269.787109</ele>
        <time>2014-09-07T08:29:47Z</time>
      </trkpt>
      <trkpt lat="43.28601" lon="-0.54473">
        <ele>270.748413</ele>
        <time>2014-09-07T08:30:02Z</time>
      </trkpt>
      <trkpt lat="43.2857" lon="-0.54435">
        <ele>270.2677</ele>
        <time>2014-09-07T08:30:16Z</time>
      </trkpt>
      <trkpt lat="43.28555" lon="-0.54416">
        <ele>266.422485</ele>
        <time>2014-09-07T08:30:20Z</time>
      </trkpt>
      <trkpt lat="43.28551" lon="-0.54412">
        <ele>266.422485</ele>
        <time>2014-09-07T08:30:21Z</time>
      </trkpt>
      <trkpt lat="43.28543" lon="-0.54402">
        <ele>265.941895</ele>
        <time>2014-09-07T08:30:23Z</time>
      </trkpt>
      <trkpt lat="43.28482" lon="-0.5435">
        <ele>264.019287</ele>
        <time>2014-09-07T08:30:36Z</time>
      </trkpt>
      <trkpt lat="43.28443" lon="-0.5433">
        <ele>265.461304</ele>
        <time>2014-09-07T08:30:48Z</time>
      </trkpt>
      <trkpt lat="43.28433" lon="-0.54327">
        <ele>266.422485</ele>
        <time>2014-09-07T08:30:52Z</time>
      </trkpt>
      <trkpt lat="43.28431" lon="-0.54312">
        <ele>264.499878</ele>
        <time>2014-09-07T08:30:57Z</time>
      </trkpt>
      <trkpt lat="43.28442" lon="-0.54288">
        <ele>261.135254</ele>
        <time>2014-09-07T08:31:02Z</time>
      </trkpt>
      <trkpt lat="43.28431" lon="-0.54269">
        <ele>260.17395</ele>
        <time>2014-09-07T08:31:08Z</time>
      </trkpt>
      <trkpt lat="43.28423" lon="-0.54263">
        <ele>259.212646</ele>
        <time>2014-09-07T08:31:11Z</time>
      </trkpt>
      <trkpt lat="43.28423" lon="-0.54251">
        <ele>258.251343</ele>
        <time>2014-09-07T08:31:15Z</time>
      </trkpt>
      <trkpt lat="43.28438" lon="-0.54219">
        <ele>254.406006</ele>
        <time>2014-09-07T08:31:21Z</time>
      </trkpt>
      <trkpt lat="43.28447" lon="-0.54198">
        <ele>251.041382</ele>
        <time>2014-09-07T08:31:24Z</time>
      </trkpt>
      <trkpt lat="43.28455" lon="-0.54182">
        <ele>247.676758</ele>
        <time>2014-09-07T08:31:27Z</time>
      </trkpt>
      <trkpt lat="43.28457" lon="-0.54177">
        <ele>247.676758</ele>
        <time>2014-09-07T08:31:28Z</time>
      </trkpt>
      <trkpt lat="43.28459" lon="-0.54171">
        <ele>245.75415</ele>
        <time>2014-09-07T08:31:30Z</time>
      </trkpt>
      <trkpt lat="43.28449" lon="-0.54152">
        <ele>244.312256</ele>
        <time>2014-09-07T08:31:38Z</time>
      </trkpt>
      <trkpt lat="43.28447" lon="-0.54141">
        <ele>241.908936</ele>
        <time>2014-09-07T08:31:40Z</time>
      </trkpt>
      <trkpt lat="43.28442" lon="-0.54121">
        <ele>238.544312</ele>
        <time>2014-09-07T08:31:43Z</time>
      </trkpt>
      <trkpt lat="43.28437" lon="-0.54098">
        <ele>235.179688</ele>
        <time>2014-09-07T08:31:46Z</time>
      </trkpt>
      <trkpt lat="43.28433" lon="-0.54081">
        <ele>230.85376</ele>
        <time>2014-09-07T08:31:48Z</time>
      </trkpt>
      <trkpt lat="43.28427" lon="-0.54057">
        <ele>226.527832</ele>
        <time>2014-09-07T08:31:51Z</time>
      </trkpt>
      <trkpt lat="43.28425" lon="-0.54044">
        <ele>224.124512</ele>
        <time>2014-09-07T08:31:53Z</time>
      </trkpt>
      <trkpt lat="43.28432" lon="-0.5403">
        <ele>219.798584</ele>
        <time>2014-09-07T08:31:57Z</time>
      </trkpt>
      <trkpt lat="43.2844" lon="-0.54019">
        <ele>216.914673</ele>
        <time>2014-09-07T08:32:00Z</time>
      </trkpt>
      <trkpt lat="43.28442" lon="-0.54012">
        <ele>216.43396</ele>
        <time>2014-09-07T08:32:01Z</time>
      </trkpt>
      <trkpt lat="43.28449" lon="-0.53981">
        <ele>212.108032</ele>
        <time>2014-09-07T08:32:04Z</time>
      </trkpt>
      <trkpt lat="43.28455" lon="-0.5395">
        <ele>206.820679</ele>
        <time>2014-09-07T08:32:07Z</time>
      </trkpt>
      <trkpt lat="43.28456" lon="-0.5394">
        <ele>206.820679</ele>
        <time>2014-09-07T08:32:08Z</time>
      </trkpt>
      <trkpt lat="43.28464" lon="-0.53918">
        <ele>202.494873</ele>
        <time>2014-09-07T08:32:11Z</time>
      </trkpt>
      <trkpt lat="43.2847" lon="-0.5389">
        <ele>197.20752</ele>
        <time>2014-09-07T08:32:16Z</time>
      </trkpt>
      <trkpt lat="43.28469" lon="-0.5388">
        <ele>196.246338</ele>
        <time>2014-09-07T08:32:18Z</time>
      </trkpt>
      <trkpt lat="43.28467" lon="-0.53866">
        <ele>195.284912</ele>
        <time>2014-09-07T08:32:20Z</time>
      </trkpt>
      <trkpt lat="43.2846" lon="-0.53842">
        <ele>193.843018</ele>
        <time>2014-09-07T08:32:23Z</time>
      </trkpt>
      <trkpt lat="43.28457" lon="-0.53823">
        <ele>190.478394</ele>
        <time>2014-09-07T08:32:26Z</time>
      </trkpt>
      <trkpt lat="43.28455" lon="-0.53813">
        <ele>189.516968</ele>
        <time>2014-09-07T08:32:28Z</time>
      </trkpt>
      <trkpt lat="43.28412" lon="-0.53784">
        <ele>189.036377</ele>
        <time>2014-09-07T08:32:38Z</time>
      </trkpt>
      <trkpt lat="43.28399" lon="-0.53741">
        <ele>190.478394</ele>
        <time>2014-09-07T08:32:45Z</time>
      </trkpt>
      <trkpt lat="43.28402" lon="-0.53711">
        <ele>191.439575</ele>
        <time>2014-09-07T08:32:49Z</time>
      </trkpt>
      <trkpt lat="43.28402" lon="-0.53697">
        <ele>192.401123</ele>
        <time>2014-09-07T08:32:51Z</time>
      </trkpt>
      <trkpt lat="43.28409" lon="-0.53587">
        <ele>193.843018</ele>
        <time>2014-09-07T08:33:09Z</time>
      </trkpt>
      <trkpt lat="43.28412" lon="-0.53581">
        <ele>194.804321</ele>
        <time>2014-09-07T08:33:19Z</time>
      </trkpt>
      <trkpt lat="43.28417" lon="-0.53588">
        <ele>193.362305</ele>
        <time>2014-09-07T08:33:34Z</time>
      </trkpt>
      <trkpt lat="43.28421" lon="-0.53596">
        <ele>193.362305</ele>
        <time>2014-09-07T08:34:00Z</time>
      </trkpt>
      <trkpt lat="43.28423" lon="-0.53599">
        <ele>192.881714</ele>
        <time>2014-09-07T08:34:12Z</time>
      </trkpt>
      <trkpt lat="43.28425" lon="-0.53593">
        <ele>192.881714</ele>
        <time>2014-09-07T08:34:33Z</time>
      </trkpt>
      <trkpt lat="43.28426" lon="-0.53593">
        <ele>193.362305</ele>
        <time>2014-09-07T08:34:49Z</time>
      </trkpt>
      <trkpt lat="43.28421" lon="-0.53593">
        <ele>193.843018</ele>
        <time>2014-09-07T08:35:18Z</time>
      </trkpt>
      <trkpt lat="43.28417" lon="-0.53598">
        <ele>194.32373</ele>
        <time>2014-09-07T08:35:37Z</time>
      </trkpt>
      <trkpt lat="43.28422" lon="-0.53598">
        <ele>194.32373</ele>
        <time>2014-09-07T08:36:32Z</time>
      </trkpt>
      <trkpt lat="43.28419" lon="-0.536">
        <ele>194.804321</ele>
        <time>2014-09-07T08:37:17Z</time>
      </trkpt>
      <trkpt lat="43.28424" lon="-0.53597">
        <ele>195.765625</ele>
        <time>2014-09-07T08:38:15Z</time>
      </trkpt>
      <trkpt lat="43.28419" lon="-0.53599">
        <ele>195.765625</ele>
        <time>2014-09-07T08:38:50Z</time>
      </trkpt>
      <trkpt lat="43.28422" lon="-0.53597">
        <ele>196.246338</ele>
        <time>2014-09-07T08:39:34Z</time>
      </trkpt>
      <trkpt lat="43.28422" lon="-0.53598">
        <ele>196.246338</ele>
        <time>2014-09-07T08:39:59Z</time>
      </trkpt>
      <trkpt lat="43.28421" lon="-0.53597">
        <ele>196.726929</ele>
        <time>2014-09-07T08:40:47Z</time>
      </trkpt>
      <trkpt lat="43.28417" lon="-0.53596">
        <ele>196.726929</ele>
        <time>2014-09-07T08:41:06Z</time>
      </trkpt>
      <trkpt lat="43.28419" lon="-0.536">
        <ele>196.726929</ele>
        <time>2014-09-07T08:41:14Z</time>
      </trkpt>
      <trkpt lat="43.28421" lon="-0.53602">
        <ele>196.726929</ele>
        <time>2014-09-07T08:41:16Z</time>
      </trkpt>
      <trkpt lat="43.28422" lon="-0.53602">
        <ele>196.726929</ele>
        <time>2014-09-07T08:41:28Z</time>
      </trkpt>
      <trkpt lat="43.28417" lon="-0.53603">
        <ele>196.246338</ele>
        <time>2014-09-07T08:41:49Z</time>
      </trkpt>
      <trkpt lat="43.28417" lon="-0.53591">
        <ele>196.726929</ele>
        <time>2014-09-07T08:42:02Z</time>
      </trkpt>
      <trkpt lat="43.28413" lon="-0.53577">
        <ele>197.688232</ele>
        <time>2014-09-07T08:42:13Z</time>
      </trkpt>
      <trkpt lat="43.28413" lon="-0.53569">
        <ele>197.688232</ele>
        <time>2014-09-07T08:42:20Z</time>
      </trkpt>
      <trkpt lat="43.28423" lon="-0.5357">
        <ele>198.168945</ele>
        <time>2014-09-07T08:42:26Z</time>
      </trkpt>
      <trkpt lat="43.28451" lon="-0.53595">
        <ele>199.61084</ele>
        <time>2014-09-07T08:42:43Z</time>
      </trkpt>
      <trkpt lat="43.28457" lon="-0.53588">
        <ele>202.014282</ele>
        <time>2014-09-07T08:42:52Z</time>
      </trkpt>
      <trkpt lat="43.28456" lon="-0.53586">
        <ele>201.533569</ele>
        <time>2014-09-07T08:42:53Z</time>
      </trkpt>
      <trkpt lat="43.28445" lon="-0.53568">
        <ele>205.378784</ele>
        <time>2014-09-07T08:43:04Z</time>
      </trkpt>
      <trkpt lat="43.28444" lon="-0.5356">
        <ele>206.340088</ele>
        <time>2014-09-07T08:43:18Z</time>
      </trkpt>
      <trkpt lat="43.28438" lon="-0.53546">
        <ele>205.859497</ele>
        <time>2014-09-07T08:43:34Z</time>
      </trkpt>
      <trkpt lat="43.28432" lon="-0.53515">
        <ele>205.378784</ele>
        <time>2014-09-07T08:43:43Z</time>
      </trkpt>
      <trkpt lat="43.28431" lon="-0.53479">
        <ele>208.743408</ele>
        <time>2014-09-07T08:43:59Z</time>
      </trkpt>
      <trkpt lat="43.28433" lon="-0.53438">
        <ele>212.108032</ele>
        <time>2014-09-07T08:44:20Z</time>
      </trkpt>
      <trkpt lat="43.28435" lon="-0.53434">
        <ele>212.108032</ele>
        <time>2014-09-07T08:44:23Z</time>
      </trkpt>
      <trkpt lat="43.28442" lon="-0.53443">
        <ele>213.550049</ele>
        <time>2014-09-07T08:44:32Z</time>
      </trkpt>
      <trkpt lat="43.28444" lon="-0.53447">
        <ele>215.472656</ele>
        <time>2014-09-07T08:44:35Z</time>
      </trkpt>
      <trkpt lat="43.28446" lon="-0.53453">
        <ele>216.914673</ele>
        <time>2014-09-07T08:44:39Z</time>
      </trkpt>
      <trkpt lat="43.28453" lon="-0.53474">
        <ele>220.279175</ele>
        <time>2014-09-07T08:44:52Z</time>
      </trkpt>
      <trkpt lat="43.28462" lon="-0.53528">
        <ele>218.83728</ele>
        <time>2014-09-07T08:45:10Z</time>
      </trkpt>
      <trkpt lat="43.28468" lon="-0.53541">
        <ele>217.875977</ele>
        <time>2014-09-07T08:45:13Z</time>
      </trkpt>
      <trkpt lat="43.28491" lon="-0.53566">
        <ele>215.472656</ele>
        <time>2014-09-07T08:45:19Z</time>
      </trkpt>
      <trkpt lat="43.28505" lon="-0.5358">
        <ele>213.550049</ele>
        <time>2014-09-07T08:45:22Z</time>
      </trkpt>
      <trkpt lat="43.28526" lon="-0.53587">
        <ele>214.03064</ele>
        <time>2014-09-07T08:45:27Z</time>
      </trkpt>
      <trkpt lat="43.28556" lon="-0.53589">
        <ele>215.953247</ele>
        <time>2014-09-07T08:45:40Z</time>
      </trkpt>
      <trkpt lat="43.2856" lon="-0.53586">
        <ele>217.875977</ele>
        <time>2014-09-07T08:45:43Z</time>
      </trkpt>
      <trkpt lat="43.28568" lon="-0.53581">
        <ele>219.798584</ele>
        <time>2014-09-07T08:45:49Z</time>
      </trkpt>
      <trkpt lat="43.28569" lon="-0.53578">
        <ele>219.798584</ele>
        <time>2014-09-07T08:45:51Z</time>
      </trkpt>
      <trkpt lat="43.28568" lon="-0.53571">
        <ele>222.201782</ele>
        <time>2014-09-07T08:45:56Z</time>
      </trkpt>
      <trkpt lat="43.28542" lon="-0.53557">
        <ele>224.605225</ele>
        <time>2014-09-07T08:46:16Z</time>
      </trkpt>
      <trkpt lat="43.2853" lon="-0.53547">
        <ele>227.969727</ele>
        <time>2014-09-07T08:46:26Z</time>
      </trkpt>
      <trkpt lat="43.28512" lon="-0.5353">
        <ele>228.931152</ele>
        <time>2014-09-07T08:46:41Z</time>
      </trkpt>
      <trkpt lat="43.28494" lon="-0.53499">
        <ele>231.814941</ele>
        <time>2014-09-07T08:47:02Z</time>
      </trkpt>
      <trkpt lat="43.2849" lon="-0.5348">
        <ele>235.179688</ele>
        <time>2014-09-07T08:47:17Z</time>
      </trkpt>
      <trkpt lat="43.28488" lon="-0.53462">
        <ele>238.544312</ele>
        <time>2014-09-07T08:47:30Z</time>
      </trkpt>
      <trkpt lat="43.28487" lon="-0.5344">
        <ele>241.908936</ele>
        <time>2014-09-07T08:47:47Z</time>
      </trkpt>
      <trkpt lat="43.28487" lon="-0.53417">
        <ele>243.831543</ele>
        <time>2014-09-07T08:48:04Z</time>
      </trkpt>
      <trkpt lat="43.2849" lon="-0.53368">
        <ele>242.389648</ele>
        <time>2014-09-07T08:48:21Z</time>
      </trkpt>
      <trkpt lat="43.28494" lon="-0.53322">
        <ele>245.273438</ele>
        <time>2014-09-07T08:48:39Z</time>
      </trkpt>
      <trkpt lat="43.28506" lon="-0.53308">
        <ele>248.638184</ele>
        <time>2014-09-07T08:48:53Z</time>
      </trkpt>
      <trkpt lat="43.28512" lon="-0.53305">
        <ele>249.118774</ele>
        <time>2014-09-07T08:48:59Z</time>
      </trkpt>
      <trkpt lat="43.28515" lon="-0.53311">
        <ele>250.0802</ele>
        <time>2014-09-07T08:49:04Z</time>
      </trkpt>
      <trkpt lat="43.28516" lon="-0.53314">
        <ele>251.041382</ele>
        <time>2014-09-07T08:49:06Z</time>
      </trkpt>
      <trkpt lat="43.28521" lon="-0.53344">
        <ele>254.406006</ele>
        <time>2014-09-07T08:49:24Z</time>
      </trkpt>
      <trkpt lat="43.28527" lon="-0.53384">
        <ele>258.251343</ele>
        <time>2014-09-07T08:49:43Z</time>
      </trkpt>
      <trkpt lat="43.28545" lon="-0.53432">
        <ele>260.17395</ele>
        <time>2014-09-07T08:50:02Z</time>
      </trkpt>
      <trkpt lat="43.28595" lon="-0.53463">
        <ele>257.770752</ele>
        <time>2014-09-07T08:50:21Z</time>
      </trkpt>
      <trkpt lat="43.28599" lon="-0.53464">
        <ele>257.770752</ele>
        <time>2014-09-07T08:50:23Z</time>
      </trkpt>
      <trkpt lat="43.28605" lon="-0.53453">
        <ele>259.212646</ele>
        <time>2014-09-07T08:50:34Z</time>
      </trkpt>
      <trkpt lat="43.28611" lon="-0.53437">
        <ele>261.615967</ele>
        <time>2014-09-07T08:50:51Z</time>
      </trkpt>
      <trkpt lat="43.28617" lon="-0.53428">
        <ele>262.577148</ele>
        <time>2014-09-07T08:51:07Z</time>
      </trkpt>
      <trkpt lat="43.28642" lon="-0.5339">
        <ele>264.499878</ele>
        <time>2014-09-07T08:51:28Z</time>
      </trkpt>
      <trkpt lat="43.28667" lon="-0.53366">
        <ele>266.903198</ele>
        <time>2014-09-07T08:51:43Z</time>
      </trkpt>
      <trkpt lat="43.28672" lon="-0.5336">
        <ele>268.825806</ele>
        <time>2014-09-07T08:51:48Z</time>
      </trkpt>
      <trkpt lat="43.28678" lon="-0.5336">
        <ele>269.306519</ele>
        <time>2014-09-07T08:51:52Z</time>
      </trkpt>
      <trkpt lat="43.28724" lon="-0.53364">
        <ele>270.748413</ele>
        <time>2014-09-07T08:52:14Z</time>
      </trkpt>
      <trkpt lat="43.28762" lon="-0.5337">
        <ele>273.632446</ele>
        <time>2014-09-07T08:52:30Z</time>
      </trkpt>
      <trkpt lat="43.28786" lon="-0.53371">
        <ele>276.035645</ele>
        <time>2014-09-07T08:52:42Z</time>
      </trkpt>
      <trkpt lat="43.28786" lon="-0.53363">
        <ele>276.99707</ele>
        <time>2014-09-07T08:52:46Z</time>
      </trkpt>
      <trkpt lat="43.28776" lon="-0.53336">
        <ele>280.361694</ele>
        <time>2014-09-07T08:52:59Z</time>
      </trkpt>
      <trkpt lat="43.28769" lon="-0.53289">
        <ele>282.765015</ele>
        <time>2014-09-07T08:53:21Z</time>
      </trkpt>
      <trkpt lat="43.28762" lon="-0.53245">
        <ele>285.648804</ele>
        <time>2014-09-07T08:53:38Z</time>
      </trkpt>
      <trkpt lat="43.2874" lon="-0.53191">
        <ele>288.532959</ele>
        <time>2014-09-07T08:53:57Z</time>
      </trkpt>
      <trkpt lat="43.28722" lon="-0.53137">
        <ele>290.455566</ele>
        <time>2014-09-07T08:54:13Z</time>
      </trkpt>
      <trkpt lat="43.28707" lon="-0.53063">
        <ele>293.339355</ele>
        <time>2014-09-07T08:54:31Z</time>
      </trkpt>
      <trkpt lat="43.2868" lon="-0.52983">
        <ele>294.300781</ele>
        <time>2014-09-07T08:54:51Z</time>
      </trkpt>
      <trkpt lat="43.28643" lon="-0.52934">
        <ele>293.820068</ele>
        <time>2014-09-07T08:55:04Z</time>
      </trkpt>
      <trkpt lat="43.28639" lon="-0.5293">
        <ele>293.339355</ele>
        <time>2014-09-07T08:55:05Z</time>
      </trkpt>
      <trkpt lat="43.28634" lon="-0.52903">
        <ele>292.858765</ele>
        <time>2014-09-07T08:55:10Z</time>
      </trkpt>
      <trkpt lat="43.2865" lon="-0.52842">
        <ele>294.300781</ele>
        <time>2014-09-07T08:55:27Z</time>
      </trkpt>
      <trkpt lat="43.28662" lon="-0.52801">
        <ele>297.665405</ele>
        <time>2014-09-07T08:55:42Z</time>
      </trkpt>
      <trkpt lat="43.28667" lon="-0.52776">
        <ele>299.588013</ele>
        <time>2014-09-07T08:55:58Z</time>
      </trkpt>
      <trkpt lat="43.28664" lon="-0.52805">
        <ele>296.704102</ele>
        <time>2014-09-07T08:56:09Z</time>
      </trkpt>
      <trkpt lat="43.28701" lon="-0.52841">
        <ele>295.742676</ele>
        <time>2014-09-07T08:56:22Z</time>
      </trkpt>
      <trkpt lat="43.2875" lon="-0.52885">
        <ele>291.897461</ele>
        <time>2014-09-07T08:56:34Z</time>
      </trkpt>
      <trkpt lat="43.28813" lon="-0.52941">
        <ele>291.416748</ele>
        <time>2014-09-07T08:56:52Z</time>
      </trkpt>
      <trkpt lat="43.2883" lon="-0.52958">
        <ele>291.416748</ele>
        <time>2014-09-07T08:56:58Z</time>
      </trkpt>
      <trkpt lat="43.28833" lon="-0.52987">
        <ele>290.936157</ele>
        <time>2014-09-07T08:57:04Z</time>
      </trkpt>
      <trkpt lat="43.28874" lon="-0.53018">
        <ele>291.897461</ele>
        <time>2014-09-07T08:57:17Z</time>
      </trkpt>
      <trkpt lat="43.28897" lon="-0.5301">
        <ele>294.781372</ele>
        <time>2014-09-07T08:57:26Z</time>
      </trkpt>
      <trkpt lat="43.28899" lon="-0.52974">
        <ele>295.261963</ele>
        <time>2014-09-07T08:57:37Z</time>
      </trkpt>
      <trkpt lat="43.28896" lon="-0.52965">
        <ele>294.781372</ele>
        <time>2014-09-07T08:57:39Z</time>
      </trkpt>
      <trkpt lat="43.28888" lon="-0.5295">
        <ele>293.820068</ele>
        <time>2014-09-07T08:57:42Z</time>
      </trkpt>
      <trkpt lat="43.28879" lon="-0.52917">
        <ele>291.897461</ele>
        <time>2014-09-07T08:57:46Z</time>
      </trkpt>
      <trkpt lat="43.28879" lon="-0.52907">
        <ele>290.936157</ele>
        <time>2014-09-07T08:57:47Z</time>
      </trkpt>
      <trkpt lat="43.28888" lon="-0.52773">
        <ele>292.378174</ele>
        <time>2014-09-07T08:58:02Z</time>
      </trkpt>
      <trkpt lat="43.28892" lon="-0.52718">
        <ele>290.455566</ele>
        <time>2014-09-07T08:58:09Z</time>
      </trkpt>
      <trkpt lat="43.28899" lon="-0.527">
        <ele>289.01355</ele>
        <time>2014-09-07T08:58:12Z</time>
      </trkpt>
      <trkpt lat="43.28913" lon="-0.52694">
        <ele>287.09082</ele>
        <time>2014-09-07T08:58:15Z</time>
      </trkpt>
      <trkpt lat="43.28945" lon="-0.52691">
        <ele>285.168213</ele>
        <time>2014-09-07T08:58:20Z</time>
      </trkpt>
      <trkpt lat="43.29018" lon="-0.52681">
        <ele>285.648804</ele>
        <time>2014-09-07T08:58:30Z</time>
      </trkpt>
      <trkpt lat="43.29041" lon="-0.52685">
        <ele>288.052246</ele>
        <time>2014-09-07T08:58:34Z</time>
      </trkpt>
      <trkpt lat="43.29064" lon="-0.52698">
        <ele>289.494141</ele>
        <time>2014-09-07T08:58:39Z</time>
      </trkpt>
      <trkpt lat="43.29117" lon="-0.52759">
        <ele>289.494141</ele>
        <time>2014-09-07T08:58:55Z</time>
      </trkpt>
      <trkpt lat="43.29158" lon="-0.52802">
        <ele>286.129517</ele>
        <time>2014-09-07T08:59:02Z</time>
      </trkpt>
      <trkpt lat="43.29189" lon="-0.5283">
        <ele>284.206909</ele>
        <time>2014-09-07T08:59:06Z</time>
      </trkpt>
      <trkpt lat="43.29282" lon="-0.52871">
        <ele>281.803589</ele>
        <time>2014-09-07T08:59:17Z</time>
      </trkpt>
      <trkpt lat="43.29373" lon="-0.52878">
        <ele>283.726196</ele>
        <time>2014-09-07T08:59:31Z</time>
      </trkpt>
      <trkpt lat="43.29473" lon="-0.52895">
        <ele>282.284302</ele>
        <time>2014-09-07T08:59:48Z</time>
      </trkpt>
      <trkpt lat="43.29532" lon="-0.5292">
        <ele>280.361694</ele>
        <time>2014-09-07T08:59:56Z</time>
      </trkpt>
      <trkpt lat="43.29571" lon="-0.52936">
        <ele>276.035645</ele>
        <time>2014-09-07T09:00:01Z</time>
      </trkpt>
      <trkpt lat="43.29602" lon="-0.52948">
        <ele>272.671143</ele>
        <time>2014-09-07T09:00:05Z</time>
      </trkpt>
      <trkpt lat="43.29617" lon="-0.52954">
        <ele>269.787109</ele>
        <time>2014-09-07T09:00:07Z</time>
      </trkpt>
      <trkpt lat="43.29625" lon="-0.52957">
        <ele>267.864502</ele>
        <time>2014-09-07T09:00:08Z</time>
      </trkpt>
      <trkpt lat="43.29658" lon="-0.52953">
        <ele>261.615967</ele>
        <time>2014-09-07T09:00:12Z</time>
      </trkpt>
      <trkpt lat="43.29682" lon="-0.52939">
        <ele>258.251343</ele>
        <time>2014-09-07T09:00:15Z</time>
      </trkpt>
      <trkpt lat="43.29706" lon="-0.52912">
        <ele>254.406006</ele>
        <time>2014-09-07T09:00:20Z</time>
      </trkpt>
      <trkpt lat="43.29722" lon="-0.52897">
        <ele>252.483398</ele>
        <time>2014-09-07T09:00:25Z</time>
      </trkpt>
      <trkpt lat="43.29725" lon="-0.52898">
        <ele>252.483398</ele>
        <time>2014-09-07T09:00:26Z</time>
      </trkpt>
      <trkpt lat="43.2976" lon="-0.52942">
        <ele>252.483398</ele>
        <time>2014-09-07T09:00:35Z</time>
      </trkpt>
      <trkpt lat="43.29809" lon="-0.53017">
        <ele>249.118774</ele>
        <time>2014-09-07T09:00:45Z</time>
      </trkpt>
      <trkpt lat="43.29856" lon="-0.53104">
        <ele>250.560791</ele>
        <time>2014-09-07T09:00:58Z</time>
      </trkpt>
      <trkpt lat="43.29891" lon="-0.53098">
        <ele>247.676758</ele>
        <time>2014-09-07T09:01:05Z</time>
      </trkpt>
      <trkpt lat="43.29912" lon="-0.53104">
        <ele>245.75415</ele>
        <time>2014-09-07T09:01:08Z</time>
      </trkpt>
      <trkpt lat="43.30003" lon="-0.53151">
        <ele>248.638184</ele>
        <time>2014-09-07T09:01:24Z</time>
      </trkpt>
      <trkpt lat="43.30084" lon="-0.5319">
        <ele>248.157593</ele>
        <time>2014-09-07T09:01:43Z</time>
      </trkpt>
      <trkpt lat="43.30119" lon="-0.53205">
        <ele>244.792847</ele>
        <time>2014-09-07T09:01:49Z</time>
      </trkpt>
      <trkpt lat="43.30125" lon="-0.53208">
        <ele>244.312256</ele>
        <time>2014-09-07T09:01:50Z</time>
      </trkpt>
      <trkpt lat="43.30139" lon="-0.53214">
        <ele>242.389648</ele>
        <time>2014-09-07T09:01:52Z</time>
      </trkpt>
      <trkpt lat="43.30169" lon="-0.5323">
        <ele>240.467041</ele>
        <time>2014-09-07T09:01:56Z</time>
      </trkpt>
      <trkpt lat="43.30191" lon="-0.53246">
        <ele>238.544312</ele>
        <time>2014-09-07T09:01:59Z</time>
      </trkpt>
      <trkpt lat="43.30257" lon="-0.53315">
        <ele>237.102295</ele>
        <time>2014-09-07T09:02:10Z</time>
      </trkpt>
      <trkpt lat="43.30273" lon="-0.53331">
        <ele>236.621704</ele>
        <time>2014-09-07T09:02:13Z</time>
      </trkpt>
      <trkpt lat="43.30289" lon="-0.53351">
        <ele>237.582886</ele>
        <time>2014-09-07T09:02:17Z</time>
      </trkpt>
      <trkpt lat="43.30344" lon="-0.53428">
        <ele>240.467041</ele>
        <time>2014-09-07T09:02:37Z</time>
      </trkpt>
      <trkpt lat="43.30382" lon="-0.53476">
        <ele>243.831543</ele>
        <time>2014-09-07T09:02:54Z</time>
      </trkpt>
      <trkpt lat="43.30417" lon="-0.53515">
        <ele>244.792847</ele>
        <time>2014-09-07T09:03:10Z</time>
      </trkpt>
      <trkpt lat="43.30452" lon="-0.53557">
        <ele>247.196045</ele>
        <time>2014-09-07T09:03:26Z</time>
      </trkpt>
      <trkpt lat="43.30474" lon="-0.53596">
        <ele>249.118774</ele>
        <time>2014-09-07T09:03:42Z</time>
      </trkpt>
      <trkpt lat="43.30494" lon="-0.53616">
        <ele>252.002808</ele>
        <time>2014-09-07T09:03:58Z</time>
      </trkpt>
      <trkpt lat="43.30504" lon="-0.53625">
        <ele>253.444702</ele>
        <time>2014-09-07T09:04:06Z</time>
      </trkpt>
      <trkpt lat="43.30514" lon="-0.53635">
        <ele>256.328735</ele>
        <time>2014-09-07T09:04:16Z</time>
      </trkpt>
      <trkpt lat="43.30526" lon="-0.53644">
        <ele>259.693359</ele>
        <time>2014-09-07T09:04:27Z</time>
      </trkpt>
      <trkpt lat="43.3053" lon="-0.53649">
        <ele>261.135254</ele>
        <time>2014-09-07T09:04:32Z</time>
      </trkpt>
      <trkpt lat="43.30544" lon="-0.53677">
        <ele>264.019287</ele>
        <time>2014-09-07T09:04:50Z</time>
      </trkpt>
      <trkpt lat="43.30545" lon="-0.53678">
        <ele>264.499878</ele>
        <time>2014-09-07T09:04:51Z</time>
      </trkpt>
      <trkpt lat="43.30555" lon="-0.53717">
        <ele>266.422485</ele>
        <time>2014-09-07T09:05:08Z</time>
      </trkpt>
      <trkpt lat="43.30561" lon="-0.53744">
        <ele>269.787109</ele>
        <time>2014-09-07T09:05:18Z</time>
      </trkpt>
      <trkpt lat="43.3057" lon="-0.53777">
        <ele>271.229126</ele>
        <time>2014-09-07T09:05:31Z</time>
      </trkpt>
      <trkpt lat="43.30575" lon="-0.53821">
        <ele>273.151855</ele>
        <time>2014-09-07T09:05:46Z</time>
      </trkpt>
      <trkpt lat="43.30585" lon="-0.53861">
        <ele>275.074463</ele>
        <time>2014-09-07T09:06:01Z</time>
      </trkpt>
      <trkpt lat="43.30603" lon="-0.53874">
        <ele>278.438965</ele>
        <time>2014-09-07T09:06:11Z</time>
      </trkpt>
      <trkpt lat="43.30627" lon="-0.53883">
        <ele>281.322998</ele>
        <time>2014-09-07T09:06:25Z</time>
      </trkpt>
      <trkpt lat="43.30649" lon="-0.53912">
        <ele>283.245605</ele>
        <time>2014-09-07T09:06:40Z</time>
      </trkpt>
      <trkpt lat="43.30666" lon="-0.5395">
        <ele>282.284302</ele>
        <time>2014-09-07T09:06:50Z</time>
      </trkpt>
      <trkpt lat="43.307" lon="-0.54005">
        <ele>283.245605</ele>
        <time>2014-09-07T09:07:04Z</time>
      </trkpt>
      <trkpt lat="43.30766" lon="-0.5404">
        <ele>285.648804</ele>
        <time>2014-09-07T09:07:22Z</time>
      </trkpt>
      <trkpt lat="43.30816" lon="-0.54052">
        <ele>289.01355</ele>
        <time>2014-09-07T09:07:37Z</time>
      </trkpt>
      <trkpt lat="43.30852" lon="-0.54063">
        <ele>292.378174</ele>
        <time>2014-09-07T09:07:50Z</time>
      </trkpt>
      <trkpt lat="43.30916" lon="-0.54092">
        <ele>294.781372</ele>
        <time>2014-09-07T09:08:11Z</time>
      </trkpt>
      <trkpt lat="43.30946" lon="-0.5411">
        <ele>293.820068</ele>
        <time>2014-09-07T09:08:19Z</time>
      </trkpt>
      <trkpt lat="43.30966" lon="-0.54133">
        <ele>292.858765</ele>
        <time>2014-09-07T09:08:24Z</time>
      </trkpt>
      <trkpt lat="43.30993" lon="-0.54189">
        <ele>289.494141</ele>
        <time>2014-09-07T09:08:31Z</time>
      </trkpt>
      <trkpt lat="43.31014" lon="-0.54253">
        <ele>286.610229</ele>
        <time>2014-09-07T09:08:38Z</time>
      </trkpt>
      <trkpt lat="43.31021" lon="-0.54268">
        <ele>285.168213</ele>
        <time>2014-09-07T09:08:40Z</time>
      </trkpt>
      <trkpt lat="43.31027" lon="-0.54277">
        <ele>283.726196</ele>
        <time>2014-09-07T09:08:42Z</time>
      </trkpt>
      <trkpt lat="43.31047" lon="-0.54257">
        <ele>283.245605</ele>
        <time>2014-09-07T09:08:48Z</time>
      </trkpt>
      <trkpt lat="43.31049" lon="-0.54247">
        <ele>285.168213</ele>
        <time>2014-09-07T09:08:50Z</time>
      </trkpt>
      <trkpt lat="43.3105" lon="-0.54184">
        <ele>289.494141</ele>
        <time>2014-09-07T09:09:04Z</time>
      </trkpt>
      <trkpt lat="43.31054" lon="-0.54178">
        <ele>289.01355</ele>
        <time>2014-09-07T09:09:06Z</time>
      </trkpt>
      <trkpt lat="43.311" lon="-0.54197">
        <ele>288.052246</ele>
        <time>2014-09-07T09:09:18Z</time>
      </trkpt>
      <trkpt lat="43.31108" lon="-0.54204">
        <ele>288.052246</ele>
        <time>2014-09-07T09:09:20Z</time>
      </trkpt>
      <trkpt lat="43.31127" lon="-0.54218">
        <ele>288.052246</ele>
        <time>2014-09-07T09:09:24Z</time>
      </trkpt>
      <trkpt lat="43.31212" lon="-0.54261">
        <ele>285.648804</ele>
        <time>2014-09-07T09:09:39Z</time>
      </trkpt>
      <trkpt lat="43.31323" lon="-0.54303">
        <ele>281.322998</ele>
        <time>2014-09-07T09:09:56Z</time>
      </trkpt>
      <trkpt lat="43.31365" lon="-0.54317">
        <ele>279.880859</ele>
        <time>2014-09-07T09:10:02Z</time>
      </trkpt>
      <trkpt lat="43.31421" lon="-0.54336">
        <ele>278.438965</ele>
        <time>2014-09-07T09:10:10Z</time>
      </trkpt>
      <trkpt lat="43.31444" lon="-0.54337">
        <ele>277.477661</ele>
        <time>2014-09-07T09:10:14Z</time>
      </trkpt>
      <trkpt lat="43.3147" lon="-0.54343">
        <ele>275.074463</ele>
        <time>2014-09-07T09:10:19Z</time>
      </trkpt>
      <trkpt lat="43.31475" lon="-0.54345">
        <ele>274.113037</ele>
        <time>2014-09-07T09:10:20Z</time>
      </trkpt>
      <trkpt lat="43.31496" lon="-0.54352">
        <ele>271.229126</ele>
        <time>2014-09-07T09:10:24Z</time>
      </trkpt>
      <trkpt lat="43.31512" lon="-0.54357">
        <ele>268.345093</ele>
        <time>2014-09-07T09:10:27Z</time>
      </trkpt>
      <trkpt lat="43.31536" lon="-0.54367">
        <ele>264.019287</ele>
        <time>2014-09-07T09:10:31Z</time>
      </trkpt>
      <trkpt lat="43.31541" lon="-0.5437">
        <ele>262.577148</ele>
        <time>2014-09-07T09:10:32Z</time>
      </trkpt>
      <trkpt lat="43.31556" lon="-0.5438">
        <ele>261.135254</ele>
        <time>2014-09-07T09:10:35Z</time>
      </trkpt>
      <trkpt lat="43.31571" lon="-0.54382">
        <ele>260.17395</ele>
        <time>2014-09-07T09:10:37Z</time>
      </trkpt>
      <trkpt lat="43.31602" lon="-0.54382">
        <ele>257.770752</ele>
        <time>2014-09-07T09:10:41Z</time>
      </trkpt>
      <trkpt lat="43.31642" lon="-0.54385">
        <ele>253.925415</ele>
        <time>2014-09-07T09:10:46Z</time>
      </trkpt>
      <trkpt lat="43.31669" lon="-0.54386">
        <ele>250.0802</ele>
        <time>2014-09-07T09:10:50Z</time>
      </trkpt>
      <trkpt lat="43.31676" lon="-0.54387">
        <ele>250.0802</ele>
        <time>2014-09-07T09:10:51Z</time>
      </trkpt>
      <trkpt lat="43.31693" lon="-0.54387">
        <ele>249.118774</ele>
        <time>2014-09-07T09:10:54Z</time>
      </trkpt>
      <trkpt lat="43.31703" lon="-0.54389">
        <ele>247.676758</ele>
        <time>2014-09-07T09:10:56Z</time>
      </trkpt>
      <trkpt lat="43.31721" lon="-0.54402">
        <ele>246.715454</ele>
        <time>2014-09-07T09:11:00Z</time>
      </trkpt>
      <trkpt lat="43.31722" lon="-0.54426">
        <ele>243.35083</ele>
        <time>2014-09-07T09:11:06Z</time>
      </trkpt>
      <trkpt lat="43.31719" lon="-0.54432">
        <ele>242.389648</ele>
        <time>2014-09-07T09:11:07Z</time>
      </trkpt>
      <trkpt lat="43.31699" lon="-0.54464">
        <ele>238.063599</ele>
        <time>2014-09-07T09:11:12Z</time>
      </trkpt>
      <trkpt lat="43.31676" lon="-0.54484">
        <ele>232.295776</ele>
        <time>2014-09-07T09:11:17Z</time>
      </trkpt>
      <trkpt lat="43.31668" lon="-0.54494">
        <ele>230.373047</ele>
        <time>2014-09-07T09:11:19Z</time>
      </trkpt>
      <trkpt lat="43.31658" lon="-0.5451">
        <ele>228.450439</ele>
        <time>2014-09-07T09:11:22Z</time>
      </trkpt>
      <trkpt lat="43.31652" lon="-0.54521">
        <ele>226.527832</ele>
        <time>2014-09-07T09:11:24Z</time>
      </trkpt>
      <trkpt lat="43.31644" lon="-0.54533">
        <ele>224.605225</ele>
        <time>2014-09-07T09:11:26Z</time>
      </trkpt>
      <trkpt lat="43.31631" lon="-0.54551">
        <ele>222.682495</ele>
        <time>2014-09-07T09:11:29Z</time>
      </trkpt>
      <trkpt lat="43.31616" lon="-0.54566">
        <ele>221.721191</ele>
        <time>2014-09-07T09:11:33Z</time>
      </trkpt>
      <trkpt lat="43.31599" lon="-0.54576">
        <ele>220.279175</ele>
        <time>2014-09-07T09:11:36Z</time>
      </trkpt>
      <trkpt lat="43.31558" lon="-0.54594">
        <ele>219.798584</ele>
        <time>2014-09-07T09:11:47Z</time>
      </trkpt>
      <trkpt lat="43.31554" lon="-0.54595">
        <ele>218.83728</ele>
        <time>2014-09-07T09:11:48Z</time>
      </trkpt>
      <trkpt lat="43.3153" lon="-0.54605">
        <ele>218.356567</ele>
        <time>2014-09-07T09:11:55Z</time>
      </trkpt>
      <trkpt lat="43.31527" lon="-0.54612">
        <ele>218.83728</ele>
        <time>2014-09-07T09:11:59Z</time>
      </trkpt>
      <trkpt lat="43.31534" lon="-0.54639">
        <ele>220.279175</ele>
        <time>2014-09-07T09:12:10Z</time>
      </trkpt>
      <trkpt lat="43.31542" lon="-0.5466">
        <ele>221.721191</ele>
        <time>2014-09-07T09:12:24Z</time>
      </trkpt>
      <trkpt lat="43.31543" lon="-0.54667">
        <ele>223.163208</ele>
        <time>2014-09-07T09:12:29Z</time>
      </trkpt>
      <trkpt lat="43.31547" lon="-0.54686">
        <ele>226.047119</ele>
        <time>2014-09-07T09:12:43Z</time>
      </trkpt>
      <trkpt lat="43.31545" lon="-0.54692">
        <ele>226.527832</ele>
        <time>2014-09-07T09:12:49Z</time>
      </trkpt>
      <trkpt lat="43.31546" lon="-0.547">
        <ele>226.047119</ele>
        <time>2014-09-07T09:12:55Z</time>
      </trkpt>
      <trkpt lat="43.31547" lon="-0.54702">
        <ele>226.047119</ele>
        <time>2014-09-07T09:12:57Z</time>
      </trkpt>
      <trkpt lat="43.31547" lon="-0.54705">
        <ele>227.008545</ele>
        <time>2014-09-07T09:12:59Z</time>
      </trkpt>
      <trkpt lat="43.31548" lon="-0.54713">
        <ele>228.450439</ele>
        <time>2014-09-07T09:13:07Z</time>
      </trkpt>
      <trkpt lat="43.31552" lon="-0.54733">
        <ele>228.931152</ele>
        <time>2014-09-07T09:13:21Z</time>
      </trkpt>
      <trkpt lat="43.31556" lon="-0.54743">
        <ele>231.814941</ele>
        <time>2014-09-07T09:13:34Z</time>
      </trkpt>
      <trkpt lat="43.31558" lon="-0.54763">
        <ele>233.737671</ele>
        <time>2014-09-07T09:13:44Z</time>
      </trkpt>
      <trkpt lat="43.31557" lon="-0.54771">
        <ele>234.699097</ele>
        <time>2014-09-07T09:13:48Z</time>
      </trkpt>
      <trkpt lat="43.31561" lon="-0.54785">
        <ele>234.699097</ele>
        <time>2014-09-07T09:13:56Z</time>
      </trkpt>
      <trkpt lat="43.31563" lon="-0.5481">
        <ele>235.660278</ele>
        <time>2014-09-07T09:14:07Z</time>
      </trkpt>
      <trkpt lat="43.31562" lon="-0.54814">
        <ele>236.621704</ele>
        <time>2014-09-07T09:14:09Z</time>
      </trkpt>
      <trkpt lat="43.31565" lon="-0.54831">
        <ele>239.024902</ele>
        <time>2014-09-07T09:14:21Z</time>
      </trkpt>
      <trkpt lat="43.31566" lon="-0.54853">
        <ele>242.389648</ele>
        <time>2014-09-07T09:14:32Z</time>
      </trkpt>
      <trkpt lat="43.31568" lon="-0.54863">
        <ele>243.831543</ele>
        <time>2014-09-07T09:14:38Z</time>
      </trkpt>
      <trkpt lat="43.3157" lon="-0.54873">
        <ele>244.792847</ele>
        <time>2014-09-07T09:14:44Z</time>
      </trkpt>
      <trkpt lat="43.31572" lon="-0.54882">
        <ele>245.75415</ele>
        <time>2014-09-07T09:14:48Z</time>
      </trkpt>
      <trkpt lat="43.31574" lon="-0.54897">
        <ele>247.196045</ele>
        <time>2014-09-07T09:15:01Z</time>
      </trkpt>
      <trkpt lat="43.31574" lon="-0.5491">
        <ele>249.118774</ele>
        <time>2014-09-07T09:15:11Z</time>
      </trkpt>
      <trkpt lat="43.31574" lon="-0.54912">
        <ele>249.118774</ele>
        <time>2014-09-07T09:15:12Z</time>
      </trkpt>
      <trkpt lat="43.31575" lon="-0.54914">
        <ele>249.118774</ele>
        <time>2014-09-07T09:15:14Z</time>
      </trkpt>
      <trkpt lat="43.31582" lon="-0.54929">
        <ele>250.0802</ele>
        <time>2014-09-07T09:15:25Z</time>
      </trkpt>
      <trkpt lat="43.31587" lon="-0.54948">
        <ele>252.483398</ele>
        <time>2014-09-07T09:15:39Z</time>
      </trkpt>
      <trkpt lat="43.31589" lon="-0.54967">
        <ele>254.886597</ele>
        <time>2014-09-07T09:15:51Z</time>
      </trkpt>
      <trkpt lat="43.31591" lon="-0.54976">
        <ele>256.328735</ele>
        <time>2014-09-07T09:15:57Z</time>
      </trkpt>
      <trkpt lat="43.31592" lon="-0.54985">
        <ele>257.290039</ele>
        <time>2014-09-07T09:16:08Z</time>
      </trkpt>
      <trkpt lat="43.31593" lon="-0.55004">
        <ele>260.654541</ele>
        <time>2014-09-07T09:16:24Z</time>
      </trkpt>
      <trkpt lat="43.31597" lon="-0.5502">
        <ele>262.096558</ele>
        <time>2014-09-07T09:16:35Z</time>
      </trkpt>
      <trkpt lat="43.31606" lon="-0.55041">
        <ele>264.019287</ele>
        <time>2014-09-07T09:16:53Z</time>
      </trkpt>
      <trkpt lat="43.3161" lon="-0.5505">
        <ele>266.903198</ele>
        <time>2014-09-07T09:17:01Z</time>
      </trkpt>
      <trkpt lat="43.31615" lon="-0.55065">
        <ele>269.787109</ele>
        <time>2014-09-07T09:17:14Z</time>
      </trkpt>
      <trkpt lat="43.31616" lon="-0.55066">
        <ele>270.748413</ele>
        <time>2014-09-07T09:17:16Z</time>
      </trkpt>
      <trkpt lat="43.31626" lon="-0.55078">
        <ele>271.229126</ele>
        <time>2014-09-07T09:17:32Z</time>
      </trkpt>
      <trkpt lat="43.31658" lon="-0.55089">
        <ele>274.113037</ele>
        <time>2014-09-07T09:17:52Z</time>
      </trkpt>
      <trkpt lat="43.31692" lon="-0.55098">
        <ele>276.516357</ele>
        <time>2014-09-07T09:18:10Z</time>
      </trkpt>
      <trkpt lat="43.31748" lon="-0.55118">
        <ele>276.516357</ele>
        <time>2014-09-07T09:18:28Z</time>
      </trkpt>
      <trkpt lat="43.31817" lon="-0.55154">
        <ele>278.438965</ele>
        <time>2014-09-07T09:18:48Z</time>
      </trkpt>
      <trkpt lat="43.31839" lon="-0.552">
        <ele>279.400269</ele>
        <time>2014-09-07T09:18:59Z</time>
      </trkpt>
      <trkpt lat="43.3187" lon="-0.55247">
        <ele>279.880859</ele>
        <time>2014-09-07T09:19:12Z</time>
      </trkpt>
      <trkpt lat="43.31878" lon="-0.5526">
        <ele>281.803589</ele>
        <time>2014-09-07T09:19:16Z</time>
      </trkpt>
      <trkpt lat="43.3192" lon="-0.55323">
        <ele>284.206909</ele>
        <time>2014-09-07T09:19:38Z</time>
      </trkpt>
      <trkpt lat="43.3196" lon="-0.55383">
        <ele>285.168213</ele>
        <time>2014-09-07T09:19:58Z</time>
      </trkpt>
      <trkpt lat="43.31966" lon="-0.55391">
        <ele>284.206909</ele>
        <time>2014-09-07T09:20:00Z</time>
      </trkpt>
      <trkpt lat="43.31976" lon="-0.55407">
        <ele>284.206909</ele>
        <time>2014-09-07T09:20:04Z</time>
      </trkpt>
      <trkpt lat="43.31984" lon="-0.55423">
        <ele>284.206909</ele>
        <time>2014-09-07T09:20:08Z</time>
      </trkpt>
      <trkpt lat="43.31977" lon="-0.55441">
        <ele>283.245605</ele>
        <time>2014-09-07T09:20:13Z</time>
      </trkpt>
      <trkpt lat="43.31969" lon="-0.55462">
        <ele>282.765015</ele>
        <time>2014-09-07T09:20:17Z</time>
      </trkpt>
      <trkpt lat="43.31961" lon="-0.55498">
        <ele>279.400269</ele>
        <time>2014-09-07T09:20:22Z</time>
      </trkpt>
      <trkpt lat="43.31955" lon="-0.55525">
        <ele>276.516357</ele>
        <time>2014-09-07T09:20:26Z</time>
      </trkpt>
      <trkpt lat="43.3195" lon="-0.55553">
        <ele>272.671143</ele>
        <time>2014-09-07T09:20:30Z</time>
      </trkpt>
      <trkpt lat="43.31949" lon="-0.5556">
        <ele>272.19043</ele>
        <time>2014-09-07T09:20:31Z</time>
      </trkpt>
      <trkpt lat="43.31943" lon="-0.55604">
        <ele>268.825806</ele>
        <time>2014-09-07T09:20:36Z</time>
      </trkpt>
      <trkpt lat="43.31937" lon="-0.5563">
        <ele>264.019287</ele>
        <time>2014-09-07T09:20:39Z</time>
      </trkpt>
      <trkpt lat="43.31923" lon="-0.55657">
        <ele>263.057861</ele>
        <time>2014-09-07T09:20:43Z</time>
      </trkpt>
      <trkpt lat="43.31916" lon="-0.5568">
        <ele>261.135254</ele>
        <time>2014-09-07T09:20:46Z</time>
      </trkpt>
      <trkpt lat="43.31903" lon="-0.55701">
        <ele>258.731934</ele>
        <time>2014-09-07T09:20:50Z</time>
      </trkpt>
      <trkpt lat="43.3188" lon="-0.55724">
        <ele>252.963989</ele>
        <time>2014-09-07T09:20:55Z</time>
      </trkpt>
      <trkpt lat="43.3187" lon="-0.55733">
        <ele>251.041382</ele>
        <time>2014-09-07T09:20:57Z</time>
      </trkpt>
      <trkpt lat="43.3185" lon="-0.55751">
        <ele>247.676758</ele>
        <time>2014-09-07T09:21:01Z</time>
      </trkpt>
      <trkpt lat="43.31838" lon="-0.55758">
        <ele>246.715454</ele>
        <time>2014-09-07T09:21:03Z</time>
      </trkpt>
      <trkpt lat="43.31816" lon="-0.55761">
        <ele>241.428223</ele>
        <time>2014-09-07T09:21:07Z</time>
      </trkpt>
      <trkpt lat="43.3179" lon="-0.55752">
        <ele>236.140991</ele>
        <time>2014-09-07T09:21:11Z</time>
      </trkpt>
      <trkpt lat="43.31779" lon="-0.55749">
        <ele>235.179688</ele>
        <time>2014-09-07T09:21:13Z</time>
      </trkpt>
      <trkpt lat="43.31758" lon="-0.55747">
        <ele>230.85376</ele>
        <time>2014-09-07T09:21:17Z</time>
      </trkpt>
      <trkpt lat="43.31748" lon="-0.55747">
        <ele>229.411743</ele>
        <time>2014-09-07T09:21:19Z</time>
      </trkpt>
      <trkpt lat="43.31736" lon="-0.55753">
        <ele>229.411743</ele>
        <time>2014-09-07T09:21:21Z</time>
      </trkpt>
      <trkpt lat="43.31694" lon="-0.55767">
        <ele>224.124512</ele>
        <time>2014-09-07T09:21:26Z</time>
      </trkpt>
      <trkpt lat="43.31685" lon="-0.55771">
        <ele>222.201782</ele>
        <time>2014-09-07T09:21:27Z</time>
      </trkpt>
      <trkpt lat="43.31667" lon="-0.55783">
        <ele>220.759888</ele>
        <time>2014-09-07T09:21:29Z</time>
      </trkpt>
      <trkpt lat="43.31642" lon="-0.55813">
        <ele>216.43396</ele>
        <time>2014-09-07T09:21:32Z</time>
      </trkpt>
      <trkpt lat="43.3163" lon="-0.55835">
        <ele>214.51123</ele>
        <time>2014-09-07T09:21:34Z</time>
      </trkpt>
      <trkpt lat="43.31614" lon="-0.5591">
        <ele>211.627441</ele>
        <time>2014-09-07T09:21:40Z</time>
      </trkpt>
      <trkpt lat="43.31614" lon="-0.55949">
        <ele>209.224121</ele>
        <time>2014-09-07T09:21:43Z</time>
      </trkpt>
      <trkpt lat="43.31602" lon="-0.55987">
        <ele>205.378784</ele>
        <time>2014-09-07T09:21:47Z</time>
      </trkpt>
      <trkpt lat="43.31589" lon="-0.56006">
        <ele>203.93689</ele>
        <time>2014-09-07T09:21:49Z</time>
      </trkpt>
      <trkpt lat="43.31581" lon="-0.56016">
        <ele>202.494873</ele>
        <time>2014-09-07T09:21:50Z</time>
      </trkpt>
      <trkpt lat="43.31548" lon="-0.56062">
        <ele>195.765625</ele>
        <time>2014-09-07T09:21:54Z</time>
      </trkpt>
      <trkpt lat="43.31535" lon="-0.56083">
        <ele>193.362305</ele>
        <time>2014-09-07T09:21:56Z</time>
      </trkpt>
      <trkpt lat="43.31506" lon="-0.56109">
        <ele>191.439575</ele>
        <time>2014-09-07T09:21:59Z</time>
      </trkpt>
      <trkpt lat="43.31489" lon="-0.56123">
        <ele>188.555786</ele>
        <time>2014-09-07T09:22:01Z</time>
      </trkpt>
      <trkpt lat="43.31475" lon="-0.56156">
        <ele>187.11377</ele>
        <time>2014-09-07T09:22:05Z</time>
      </trkpt>
      <trkpt lat="43.31498" lon="-0.56185">
        <ele>186.633179</ele>
        <time>2014-09-07T09:22:09Z</time>
      </trkpt>
      <trkpt lat="43.31532" lon="-0.5621">
        <ele>184.229858</ele>
        <time>2014-09-07T09:22:13Z</time>
      </trkpt>
      <trkpt lat="43.31546" lon="-0.56226">
        <ele>182.787842</ele>
        <time>2014-09-07T09:22:15Z</time>
      </trkpt>
      <trkpt lat="43.3158" lon="-0.56277">
        <ele>179.423218</ele>
        <time>2014-09-07T09:22:20Z</time>
      </trkpt>
      <trkpt lat="43.31588" lon="-0.56287">
        <ele>179.423218</ele>
        <time>2014-09-07T09:22:21Z</time>
      </trkpt>
      <trkpt lat="43.31605" lon="-0.56305">
        <ele>177.981201</ele>
        <time>2014-09-07T09:22:23Z</time>
      </trkpt>
      <trkpt lat="43.31626" lon="-0.56318">
        <ele>176.539307</ele>
        <time>2014-09-07T09:22:25Z</time>
      </trkpt>
      <trkpt lat="43.31639" lon="-0.56323">
        <ele>175.09729</ele>
        <time>2014-09-07T09:22:26Z</time>
      </trkpt>
      <trkpt lat="43.31685" lon="-0.56342">
        <ele>170.290649</ele>
        <time>2014-09-07T09:22:30Z</time>
      </trkpt>
      <trkpt lat="43.31708" lon="-0.56358">
        <ele>166.445313</ele>
        <time>2014-09-07T09:22:32Z</time>
      </trkpt>
      <trkpt lat="43.3172" lon="-0.56367">
        <ele>166.926025</ele>
        <time>2014-09-07T09:22:33Z</time>
      </trkpt>
      <trkpt lat="43.31731" lon="-0.56375">
        <ele>165.964722</ele>
        <time>2014-09-07T09:22:34Z</time>
      </trkpt>
      <trkpt lat="43.3177" lon="-0.56387">
        <ele>162.600098</ele>
        <time>2014-09-07T09:22:37Z</time>
      </trkpt>
      <trkpt lat="43.31783" lon="-0.56388">
        <ele>161.638916</ele>
        <time>2014-09-07T09:22:38Z</time>
      </trkpt>
      <trkpt lat="43.31828" lon="-0.56399">
        <ele>155.870972</ele>
        <time>2014-09-07T09:22:42Z</time>
      </trkpt>
      <trkpt lat="43.31844" lon="-0.56422">
        <ele>153.467651</ele>
        <time>2014-09-07T09:22:44Z</time>
      </trkpt>
      <trkpt lat="43.3186" lon="-0.5645">
        <ele>152.025757</ele>
        <time>2014-09-07T09:22:46Z</time>
      </trkpt>
      <trkpt lat="43.31909" lon="-0.56532">
        <ele>149.141602</ele>
        <time>2014-09-07T09:22:52Z</time>
      </trkpt>
      <trkpt lat="43.31925" lon="-0.56558">
        <ele>147.699707</ele>
        <time>2014-09-07T09:22:54Z</time>
      </trkpt>
      <trkpt lat="43.31962" lon="-0.56595">
        <ele>145.296387</ele>
        <time>2014-09-07T09:22:58Z</time>
      </trkpt>
      <trkpt lat="43.31992" lon="-0.56608">
        <ele>143.85437</ele>
        <time>2014-09-07T09:23:01Z</time>
      </trkpt>
      <trkpt lat="43.3211" lon="-0.56643">
        <ele>141.931763</ele>
        <time>2014-09-07T09:23:14Z</time>
      </trkpt>
      <trkpt lat="43.3213" lon="-0.56657">
        <ele>140.489868</ele>
        <time>2014-09-07T09:23:17Z</time>
      </trkpt>
      <trkpt lat="43.32128" lon="-0.56697">
        <ele>139.528442</ele>
        <time>2014-09-07T09:23:23Z</time>
      </trkpt>
      <trkpt lat="43.32124" lon="-0.56703">
        <ele>139.528442</ele>
        <time>2014-09-07T09:23:24Z</time>
      </trkpt>
      <trkpt lat="43.32104" lon="-0.56742">
        <ele>140.009155</ele>
        <time>2014-09-07T09:23:30Z</time>
      </trkpt>
      <trkpt lat="43.32097" lon="-0.56752">
        <ele>140.009155</ele>
        <time>2014-09-07T09:23:32Z</time>
      </trkpt>
      <trkpt lat="43.32072" lon="-0.56793">
        <ele>140.009155</ele>
        <time>2014-09-07T09:23:40Z</time>
      </trkpt>
      <trkpt lat="43.32075" lon="-0.56831">
        <ele>140.489868</ele>
        <time>2014-09-07T09:23:46Z</time>
      </trkpt>
      <trkpt lat="43.32095" lon="-0.56858">
        <ele>140.009155</ele>
        <time>2014-09-07T09:23:52Z</time>
      </trkpt>
      <trkpt lat="43.32135" lon="-0.56885">
        <ele>139.047852</ele>
        <time>2014-09-07T09:24:03Z</time>
      </trkpt>
      <trkpt lat="43.32139" lon="-0.56887">
        <ele>139.047852</ele>
        <time>2014-09-07T09:24:12Z</time>
      </trkpt>
      <trkpt lat="43.32149" lon="-0.56894">
        <ele>140.009155</ele>
        <time>2014-09-07T09:24:28Z</time>
      </trkpt>
      <trkpt lat="43.32162" lon="-0.56909">
        <ele>139.528442</ele>
        <time>2014-09-07T09:24:46Z</time>
      </trkpt>
      <trkpt lat="43.32165" lon="-0.56913">
        <ele>140.009155</ele>
        <time>2014-09-07T09:24:50Z</time>
      </trkpt>
      <trkpt lat="43.32164" lon="-0.5692">
        <ele>139.047852</ele>
        <time>2014-09-07T09:24:55Z</time>
      </trkpt>
      <trkpt lat="43.32168" lon="-0.56923">
        <ele>139.528442</ele>
        <time>2014-09-07T09:24:59Z</time>
      </trkpt>
      <trkpt lat="43.32177" lon="-0.56925">
        <ele>139.047852</ele>
        <time>2014-09-07T09:25:20Z</time>
      </trkpt>
      <trkpt lat="43.32179" lon="-0.56924">
        <ele>138.086548</ele>
        <time>2014-09-07T09:25:30Z</time>
      </trkpt>
    </trkseg>
  </trk>
</gpx>